Wetterdaten: Montag, 28.07.2014
Datum Zeit Temp. Aussen +5cm Feuchte Auss Luftdruck Regen Sonnenschein Regendauer UV Solar Windben
28.07.2014 00:00 19,1 C 17,2 C 92 % 1014,5 hPa 0,0 l/m 0 min 0 min 0,0 UV-I 0 W/m 0,0 km/h (0 Bft)
28.07.2014 00:02 19,1 C 17,2 C 92 % 1014,5 hPa 0,0 l/m 0 min 0 min 0,0 UV-I 0 W/m 0,0 km/h (0 Bft)
28.07.2014 00:05 19,1 C 17,8 C 92 % 1014,5 hPa 0,0 l/m 0 min 0 min 0,0 UV-I 0 W/m 0,0 km/h (0 Bft)
28.07.2014 00:06 19,2 C 17,8 C 92 % 1014,5 hPa 0,0 l/m 0 min 0 min 0,0 UV-I 0 W/m 0,0 km/h (0 Bft)
28.07.2014 00:08 19,2 C 17,8 C 92 % 1014,6 hPa 0,0 l/m 0 min 0 min 0,0 UV-I 0 W/m 0,0 km/h (0 Bft)
28.07.2014 00:10 19,2 C 17,8 C 92 % 1014,5 hPa 0,0 l/m 0 min 0 min 0,0 UV-I 0 W/m 0,0 km/h (0 Bft)
28.07.2014 00:12 19,2 C 17,8 C 92 % 1014,5 hPa 0,0 l/m 0 min 0 min 0,0 UV-I 0 W/m 0,0 km/h (0 Bft)
28.07.2014 00:14 19,2 C 17,8 C 92 % 1014,5 hPa 0,0 l/m 0 min 0 min 0,0 UV-I 0 W/m 0,0 km/h (0 Bft)
28.07.2014 00:16 19,2 C 17,8 C 92 % 1014,5 hPa 0,0 l/m 0 min 0 min 0,0 UV-I 0 W/m 0,0 km/h (0 Bft)
28.07.2014 00:18 19,2 C 17,8 C 92 % 1014,4 hPa 0,0 l/m 0 min 0 min 0,0 UV-I 0 W/m 0,0 km/h (0 Bft)
28.07.2014 00:20 19,2 C 17,8 C 92 % 1014,4 hPa 0,0 l/m 0 min 0 min 0,0 UV-I 0 W/m 0,0 km/h (0 Bft)
28.07.2014 00:22 19,3 C 17,8 C 92 % 1014,4 hPa 0,0 l/m 0 min 0 min 0,0 UV-I 0 W/m 0,0 km/h (0 Bft)
28.07.2014 00:24 19,3 C 17,8 C 92 % 1014,4 hPa 0,0 l/m 0 min 0 min 0,0 UV-I 0 W/m 0,0 km/h (0 Bft)
28.07.2014 00:26 19,3 C 17,8 C 92 % 1014,4 hPa 0,0 l/m 0 min 0 min 0,0 UV-I 0 W/m 0,0 km/h (0 Bft)
28.07.2014 00:28 19,3 C 17,8 C 92 % 1014,4 hPa 0,0 l/m 0 min 0 min 0,0 UV-I 0 W/m 0,0 km/h (0 Bft)
28.07.2014 00:30 19,3 C 17,8 C 92 % 1014,4 hPa 0,0 l/m 0 min 0 min 0,0 UV-I 0 W/m 10,5 km/h (2 Bft)
28.07.2014 00:32 19,3 C 17,8 C 92 % 1014,4 hPa 0,0 l/m 0 min 0 min 0,0 UV-I 0 W/m 10,5 km/h (2 Bft)
28.07.2014 00:34 19,3 C 17,8 C 92 % 1014,4 hPa 0,0 l/m 0 min 0 min 0,0 UV-I 0 W/m 8,4 km/h (2 Bft)
28.07.2014 00:36 19,4 C 18,3 C 92 % 1014,4 hPa 0,0 l/m 0 min 0 min 0,0 UV-I 0 W/m 6,3 km/h (2 Bft)
28.07.2014 00:38 19,4 C 18,3 C 92 % 1014,4 hPa 0,0 l/m 0 min 0 min 0,0 UV-I 0 W/m 6,3 km/h (2 Bft)
28.07.2014 00:40 19,4 C 18,3 C 92 % 1014,5 hPa 0,0 l/m 0 min 0 min 0,0 UV-I 0 W/m 10,5 km/h (2 Bft)
28.07.2014 00:42 19,5 C 18,3 C 91 % 1014,6 hPa 0,0 l/m 0 min 0 min 0,0 UV-I 0 W/m 0,0 km/h (0 Bft)
28.07.2014 00:44 19,6 C 18,3 C 91 % 1014,5 hPa 0,0 l/m 0 min 0 min 0,0 UV-I 0 W/m 10,5 km/h (2 Bft)
28.07.2014 00:46 19,6 C 18,3 C 91 % 1014,5 hPa 0,0 l/m 0 min 0 min 0,0 UV-I 0 W/m 10,5 km/h (2 Bft)
28.07.2014 00:48 19,7 C 18,3 C 91 % 1014,6 hPa 0,0 l/m 0 min 0 min 0,0 UV-I 0 W/m 10,5 km/h (2 Bft)
28.07.2014 00:50 19,7 C 18,3 C 90 % 1014,6 hPa 0,0 l/m 0 min 0 min 0,0 UV-I 0 W/m 8,4 km/h (2 Bft)
28.07.2014 00:52 19,8 C 18,3 C 90 % 1014,6 hPa 0,0 l/m 0 min 0 min 0,0 UV-I 0 W/m 2,1 km/h (1 Bft)
28.07.2014 00:54 19,8 C 18,3 C 89 % 1014,6 hPa 0,0 l/m 0 min 0 min 0,0 UV-I 0 W/m 4,2 km/h (1 Bft)
28.07.2014 00:56 19,8 C 18,3 C 89 % 1014,6 hPa 0,0 l/m 0 min 0 min 0,0 UV-I 0 W/m 8,4 km/h (2 Bft)
28.07.2014 00:58 19,8 C 18,3 C 89 % 1014,6 hPa 0,0 l/m 0 min 0 min 0,0 UV-I 0 W/m 0,0 km/h (0 Bft)
28.07.2014 01:00 19,8 C 18,3 C 89 % 1014,5 hPa 0,0 l/m 0 min 0 min 0,0 UV-I 0 W/m 0,0 km/h (0 Bft)
28.07.2014 01:02 19,9 C 18,3 C 89 % 1014,5 hPa 0,0 l/m 0 min 0 min 0,0 UV-I 0 W/m 16,7 km/h (3 Bft)
28.07.2014 01:04 19,9 C 18,3 C 89 % 1014,5 hPa 0,0 l/m 0 min 0 min 0,0 UV-I 0 W/m 8,4 km/h (2 Bft)
28.07.2014 01:06 19,9 C 18,3 C 88 % 1014,4 hPa 0,0 l/m 0 min 0 min 0,0 UV-I 0 W/m 8,4 km/h (2 Bft)
28.07.2014 01:08 19,9 C 18,3 C 88 % 1014,4 hPa 0,0 l/m 0 min 0 min 0,0 UV-I 0 W/m 0,0 km/h (0 Bft)
28.07.2014 01:10 19,9 C 18,3 C 88 % 1014,4 hPa 0,0 l/m 0 min 0 min 0,0 UV-I 0 W/m 0,0 km/h (0 Bft)
28.07.2014 01:12 19,9 C 18,3 C 88 % 1014,5 hPa 0,0 l/m 0 min 0 min 0,0 UV-I 0 W/m 0,0 km/h (0 Bft)
28.07.2014 01:14 19,9 C 18,3 C 88 % 1014,5 hPa 0,0 l/m 0 min 0 min 0,0 UV-I 0 W/m 0,0 km/h (0 Bft)
28.07.2014 01:16 19,9 C 18,3 C 88 % 1014,5 hPa 0,0 l/m 0 min 0 min 0,0 UV-I 0 W/m 0,0 km/h (0 Bft)
28.07.2014 01:18 19,8 C 18,3 C 88 % 1014,5 hPa 0,0 l/m 0 min 0 min 0,0 UV-I 0 W/m 0,0 km/h (0 Bft)
28.07.2014 01:20 19,8 C 18,3 C 88 % 1014,4 hPa 0,0 l/m 0 min 0 min 0,0 UV-I 0 W/m 0,0 km/h (0 Bft)
28.07.2014 01:22 19,8 C 18,3 C 88 % 1014,3 hPa 0,0 l/m 0 min 0 min 0,0 UV-I 0 W/m 0,0 km/h (0 Bft)
28.07.2014 01:24 19,8 C 18,3 C 88 % 1014,4 hPa 0,0 l/m 0 min 0 min 0,0 UV-I 0 W/m 0,0 km/h (0 Bft)
28.07.2014 01:26 19,8 C 18,3 C 88 % 1014,3 hPa 0,0 l/m 0 min 0 min 0,0 UV-I 0 W/m 0,0 km/h (0 Bft)
28.07.2014 01:28 19,7 C 18,3 C 89 % 1014,3 hPa 0,0 l/m 0 min 0 min 0,0 UV-I 0 W/m 0,0 km/h (0 Bft)
28.07.2014 01:30 19,7 C 18,3 C 89 % 1014,2 hPa 0,0 l/m 0 min 0 min 0,0 UV-I 0 W/m 2,1 km/h (1 Bft)
28.07.2014 01:32 19,7 C 18,3 C 89 % 1014,2 hPa 0,0 l/m 0 min 0 min 0,0 UV-I 0 W/m 0,0 km/h (0 Bft)
28.07.2014 01:34 19,7 C 18,3 C 89 % 1014,2 hPa 0,0 l/m 0 min 0 min 0,0 UV-I 0 W/m 0,0 km/h (0 Bft)
28.07.2014 01:36 19,7 C 18,3 C 89 % 1014,1 hPa 0,0 l/m 0 min 0 min 0,0 UV-I 0 W/m 0,0 km/h (0 Bft)
28.07.2014 01:38 19,7 C 18,3 C 89 % 1014,1 hPa 0,0 l/m 0 min 0 min 0,0 UV-I 0 W/m 0,0 km/h (0 Bft)
28.07.2014 01:40 19,7 C 18,3 C 89 % 1014,2 hPa 0,0 l/m 0 min 0 min 0,0 UV-I 0 W/m 0,0 km/h (0 Bft)
28.07.2014 01:42 19,7 C 18,3 C 89 % 1014,1 hPa 0,0 l/m 0 min 0 min 0,0 UV-I 0 W/m 2,1 km/h (1 Bft)
28.07.2014 01:44 19,7 C 18,3 C 89 % 1014,1 hPa 0,0 l/m 0 min 0 min 0,0 UV-I 0 W/m 6,3 km/h (2 Bft)
28.07.2014 01:46 19,7 C 18,3 C 89 % 1014,0 hPa 0,0 l/m 0 min 0 min 0,0 UV-I 0 W/m 2,1 km/h (1 Bft)
28.07.2014 01:48 19,7 C 18,3 C 89 % 1014,1 hPa 0,0 l/m 0 min 0 min 0,0 UV-I 0 W/m 6,3 km/h (2 Bft)
28.07.2014 01:50 19,7 C 18,3 C 89 % 1014,0 hPa 0,0 l/m 0 min 0 min 0,0 UV-I 0 W/m 4,2 km/h (1 Bft)
28.07.2014 01:52 19,7 C 18,3 C 89 % 1013,9 hPa 0,0 l/m 0 min 0 min 0,0 UV-I 0 W/m 6,3 km/h (2 Bft)
28.07.2014 01:54 19,7 C 18,3 C 89 % 1013,9 hPa 0,0 l/m 0 min 0 min 0,0 UV-I 0 W/m 0,0 km/h (0 Bft)
28.07.2014 01:56 19,7 C 18,3 C 90 % 1013,9 hPa 0,0 l/m 0 min 0 min 0,0 UV-I 0 W/m 6,3 km/h (2 Bft)
28.07.2014 01:58 19,7 C 18,3 C 90 % 1013,8 hPa 0,0 l/m 0 min 0 min 0,0 UV-I 0 W/m 6,3 km/h (2 Bft)
28.07.2014 02:00 19,6 C 18,3 C 90 % 1013,8 hPa 0,0 l/m 0 min 0 min 0,0 UV-I 0 W/m 0,0 km/h (0 Bft)
28.07.2014 02:02 19,6 C 18,3 C 90 % 1013,8 hPa 0,0 l/m 0 min 0 min 0,0 UV-I 0 W/m 2,1 km/h (1 Bft)
28.07.2014 02:04 19,6 C 18,3 C 90 % 1013,7 hPa 0,0 l/m 0 min 0 min 0,0 UV-I 0 W/m 0,0 km/h (0 Bft)
28.07.2014 02:06 19,6 C 18,3 C 90 % 1013,7 hPa 0,0 l/m 0 min 0 min 0,0 UV-I 0 W/m 2,1 km/h (1 Bft)
28.07.2014 02:08 19,5 C 18,3 C 90 % 1013,7 hPa 0,0 l/m 0 min 0 min 0,0 UV-I 0 W/m 0,0 km/h (0 Bft)
28.07.2014 02:10 19,5 C 18,3 C 90 % 1013,7 hPa 0,0 l/m 0 min 0 min 0,0 UV-I 0 W/m 0,0 km/h (0 Bft)
28.07.2014 02:12 19,5 C 18,3 C 90 % 1013,7 hPa 0,0 l/m 0 min 0 min 0,0 UV-I 0 W/m 2,1 km/h (1 Bft)
28.07.2014 02:14 19,5 C 18,3 C 90 % 1013,7 hPa 0,0 l/m 0 min 0 min 0,0 UV-I 0 W/m 6,3 km/h (2 Bft)
28.07.2014 02:16 19,5 C 18,3 C 90 % 1013,7 hPa 0,0 l/m 0 min 0 min 0,0 UV-I 0 W/m 8,4 km/h (2 Bft)
28.07.2014 02:18 19,5 C 18,3 C 90 % 1013,8 hPa 0,0 l/m 0 min 0 min 0,0 UV-I 0 W/m 8,4 km/h (2 Bft)
28.07.2014 02:20 19,5 C 18,3 C 90 % 1013,7 hPa 0,0 l/m 0 min 0 min 0,0 UV-I 0 W/m 6,3 km/h (2 Bft)
28.07.2014 02:22 19,5 C 18,3 C 90 % 1013,7 hPa 0,0 l/m 0 min 0 min 0,0 UV-I 0 W/m 2,1 km/h (1 Bft)
28.07.2014 02:24 19,5 C 18,3 C 90 % 1013,7 hPa 0,0 l/m 0 min 0 min 0,0 UV-I 0 W/m 0,0 km/h (0 Bft)
28.07.2014 02:26 19,5 C 18,3 C 90 % 1013,7 hPa 0,0 l/m 0 min 0 min 0,0 UV-I 0 W/m 0,0 km/h (0 Bft)
28.07.2014 02:28 19,4 C 18,3 C 90 % 1013,7 hPa 0,0 l/m 0 min 0 min 0,0 UV-I 0 W/m 0,0 km/h (0 Bft)
28.07.2014 02:30 19,4 C 18,3 C 90 % 1013,6 hPa 0,0 l/m 0 min 0 min 0,0 UV-I 0 W/m 2,1 km/h (1 Bft)
28.07.2014 02:32 19,4 C 18,3 C 90 % 1013,6 hPa 0,0 l/m 0 min 0 min 0,0 UV-I 0 W/m 0,0 km/h (0 Bft)
28.07.2014 02:34 19,4 C 18,3 C 90 % 1013,7 hPa 0,0 l/m 0 min 0 min 0,0 UV-I 0 W/m 0,0 km/h (0 Bft)
28.07.2014 02:36 19,4 C 18,3 C 90 % 1013,7 hPa 0,0 l/m 0 min 0 min 0,0 UV-I 0 W/m 0,0 km/h (0 Bft)
28.07.2014 02:38 19,3 C 18,3 C 90 % 1013,6 hPa 0,0 l/m 0 min 0 min 0,0 UV-I 0 W/m 0,0 km/h (0 Bft)
28.07.2014 02:40 19,3 C 18,3 C 90 % 1013,7 hPa 0,0 l/m 0 min 0 min 0,0 UV-I 0 W/m 0,0 km/h (0 Bft)
28.07.2014 02:42 19,3 C 18,3 C 91 % 1013,6 hPa 0,0 l/m 0 min 0 min 0,0 UV-I 0 W/m 0,0 km/h (0 Bft)
28.07.2014 02:44 19,3 C 18,3 C 91 % 1013,6 hPa 0,0 l/m 0 min 0 min 0,0 UV-I 0 W/m 2,1 km/h (1 Bft)
28.07.2014 02:46 19,3 C 18,3 C 91 % 1013,6 hPa 0,0 l/m 0 min 0 min 0,0 UV-I 0 W/m 0,0 km/h (0 Bft)
28.07.2014 02:48 19,2 C 18,3 C 91 % 1013,5 hPa 0,0 l/m 0 min 0 min 0,0 UV-I 0 W/m 2,1 km/h (1 Bft)
28.07.2014 02:50 19,2 C 17,8 C 91 % 1013,5 hPa 0,0 l/m 0 min 0 min 0,0 UV-I 0 W/m 0,0 km/h (0 Bft)
28.07.2014 02:52 19,2 C 17,8 C 91 % 1013,4 hPa 0,0 l/m 0 min 0 min 0,0 UV-I 0 W/m 2,1 km/h (1 Bft)
28.07.2014 02:54 19,2 C 17,8 C 91 % 1013,4 hPa 0,0 l/m 0 min 0 min 0,0 UV-I 0 W/m 0,0 km/h (0 Bft)
28.07.2014 02:56 19,2 C 17,8 C 91 % 1013,3 hPa 0,0 l/m 0 min 0 min 0,0 UV-I 0 W/m 0,0 km/h (0 Bft)
28.07.2014 02:58 19,2 C 17,8 C 91 % 1013,3 hPa 0,0 l/m 0 min 0 min 0,0 UV-I 0 W/m 0,0 km/h (0 Bft)
28.07.2014 03:00 19,2 C 17,8 C 91 % 1013,3 hPa 0,0 l/m 0 min 0 min 0,0 UV-I 0 W/m 4,2 km/h (1 Bft)
28.07.2014 03:02 19,2 C 17,8 C 91 % 1013,4 hPa 0,0 l/m 0 min 0 min 0,0 UV-I 0 W/m 0,0 km/h (0 Bft)
28.07.2014 03:04 19,2 C 17,8 C 91 % 1013,3 hPa 0,0 l/m 0 min 0 min 0,0 UV-I 0 W/m 0,0 km/h (0 Bft)
28.07.2014 03:06 19,1 C 17,8 C 92 % 1013,3 hPa 0,0 l/m 0 min 0 min 0,0 UV-I 0 W/m 8,4 km/h (2 Bft)
28.07.2014 03:08 19,1 C 17,8 C 92 % 1013,3 hPa 0,0 l/m 0 min 0 min 0,0 UV-I 0 W/m 0,0 km/h (0 Bft)
28.07.2014 03:10 19,1 C 17,8 C 92 % 1013,3 hPa 0,0 l/m 0 min 0 min 0,0 UV-I 0 W/m 0,0 km/h (0 Bft)
28.07.2014 03:12 19,1 C 17,8 C 92 % 1013,3 hPa 0,0 l/m 0 min 0 min 0,0 UV-I 0 W/m 0,0 km/h (0 Bft)
28.07.2014 03:14 19,1 C 17,8 C 92 % 1013,3 hPa 0,0 l/m 0 min 0 min 0,0 UV-I 0 W/m 0,0 km/h (0 Bft)
28.07.2014 03:16 19,1 C 17,8 C 92 % 1013,3 hPa 0,0 l/m 0 min 0 min 0,0 UV-I 0 W/m 0,0 km/h (0 Bft)
28.07.2014 03:18 19,1 C 17,8 C 92 % 1013,3 hPa 0,0 l/m 0 min 0 min 0,0 UV-I 0 W/m 0,0 km/h (0 Bft)
28.07.2014 03:20 19,0 C 17,8 C 92 % 1013,3 hPa 0,0 l/m 0 min 0 min 0,0 UV-I 0 W/m 0,0 km/h (0 Bft)
28.07.2014 03:22 19,0 C 17,8 C 92 % 1013,3 hPa 0,0 l/m 0 min 0 min 0,0 UV-I 0 W/m 0,0 km/h (0 Bft)
28.07.2014 03:24 19,0 C 17,8 C 93 % 1013,2 hPa 0,0 l/m 0 min 0 min 0,0 UV-I 0 W/m 0,0 km/h (0 Bft)
28.07.2014 03:26 19,0 C 17,8 C 93 % 1013,1 hPa 0,0 l/m 0 min 0 min 0,0 UV-I 0 W/m 0,0 km/h (0 Bft)
28.07.2014 03:28 18,9 C 17,8 C 93 % 1013,1 hPa 0,0 l/m 0 min 0 min 0,0 UV-I 0 W/m 0,0 km/h (0 Bft)
28.07.2014 03:30 18,9 C 17,8 C 93 % 1013,0 hPa 0,0 l/m 0 min 0 min 0,0 UV-I 0 W/m 0,0 km/h (0 Bft)
28.07.2014 03:32 18,9 C 17,8 C 93 % 1013,0 hPa 0,0 l/m 0 min 0 min 0,0 UV-I 0 W/m 0,0 km/h (0 Bft)
28.07.2014 03:34 18,9 C 17,8 C 93 % 1013,0 hPa 0,0 l/m 0 min 0 min 0,0 UV-I 0 W/m 0,0 km/h (0 Bft)
28.07.2014 03:36 18,9 C 17,8 C 93 % 1013,0 hPa 0,0 l/m 0 min 0 min 0,0 UV-I 0 W/m 0,0 km/h (0 Bft)
28.07.2014 03:38 18,9 C 17,8 C 93 % 1013,0 hPa 0,0 l/m 0 min 0 min 0,0 UV-I 0 W/m 0,0 km/h (0 Bft)
28.07.2014 03:40 18,9 C 17,8 C 93 % 1012,9 hPa 0,0 l/m 0 min 0 min 0,0 UV-I 0 W/m 0,0 km/h (0 Bft)
28.07.2014 03:42 18,8 C 17,8 C 93 % 1013,0 hPa 0,0 l/m 0 min 0 min 0,0 UV-I 0 W/m 0,0 km/h (0 Bft)
28.07.2014 03:44 18,8 C 17,8 C 93 % 1013,0 hPa 0,0 l/m 0 min 0 min 0,0 UV-I 0 W/m 0,0 km/h (0 Bft)
28.07.2014 03:46 18,8 C 17,8 C 93 % 1013,0 hPa 0,0 l/m 0 min 0 min 0,0 UV-I 0 W/m 0,0 km/h (0 Bft)
28.07.2014 03:48 18,8 C 17,8 C 93 % 1013,0 hPa 0,0 l/m 0 min 0 min 0,0 UV-I 0 W/m 0,0 km/h (0 Bft)
28.07.2014 03:50 18,8 C 17,8 C 94 % 1012,9 hPa 0,0 l/m 0 min 0 min 0,0 UV-I 0 W/m 0,0 km/h (0 Bft)
28.07.2014 03:52 18,8 C 17,8 C 94 % 1013,0 hPa 0,0 l/m 0 min 0 min 0,0 UV-I 0 W/m 0,0 km/h (0 Bft)
28.07.2014 03:54 18,8 C 17,8 C 94 % 1012,9 hPa 0,0 l/m 0 min 0 min 0,0 UV-I 0 W/m 0,0 km/h (0 Bft)
28.07.2014 03:56 18,8 C 17,8 C 94 % 1012,9 hPa 0,0 l/m 0 min 0 min 0,0 UV-I 0 W/m 0,0 km/h (0 Bft)
28.07.2014 03:58 18,8 C 17,8 C 94 % 1012,8 hPa 0,0 l/m 0 min 0 min 0,0 UV-I 0 W/m 0,0 km/h (0 Bft)
28.07.2014 04:00 18,8 C 17,8 C 94 % 1012,8 hPa 0,0 l/m 0 min 0 min 0,0 UV-I 0 W/m 0,0 km/h (0 Bft)
28.07.2014 04:02 18,8 C 17,8 C 94 % 1012,7 hPa 0,0 l/m 0 min 0 min 0,0 UV-I 0 W/m 0,0 km/h (0 Bft)
28.07.2014 04:04 18,8 C 17,8 C 94 % 1012,7 hPa 0,0 l/m 0 min 0 min 0,0 UV-I 0 W/m 0,0 km/h (0 Bft)
28.07.2014 04:06 18,8 C 17,8 C 94 % 1012,7 hPa 0,0 l/m 0 min 0 min 0,0 UV-I 0 W/m 0,0 km/h (0 Bft)
28.07.2014 04:08 18,8 C 17,8 C 94 % 1012,7 hPa 0,0 l/m 0 min 0 min 0,0 UV-I 0 W/m 0,0 km/h (0 Bft)
28.07.2014 04:10 18,8 C 17,8 C 94 % 1012,6 hPa 0,0 l/m 0 min 0 min 0,0 UV-I 0 W/m 0,0 km/h (0 Bft)
28.07.2014 04:12 18,8 C 17,8 C 94 % 1012,6 hPa 0,0 l/m 0 min 0 min 0,0 UV-I 0 W/m 0,0 km/h (0 Bft)
28.07.2014 04:14 18,8 C 17,8 C 94 % 1012,6 hPa 0,0 l/m 0 min 0 min 0,0 UV-I 0 W/m 0,0 km/h (0 Bft)
28.07.2014 04:16 18,8 C 17,8 C 94 % 1012,6 hPa 0,0 l/m 0 min 0 min 0,0 UV-I 0 W/m 0,0 km/h (0 Bft)
28.07.2014 04:18 18,8 C 17,8 C 95 % 1012,5 hPa 0,0 l/m 0 min 0 min 0,0 UV-I 0 W/m 0,0 km/h (0 Bft)
28.07.2014 04:20 18,8 C 17,2 C 95 % 1012,6 hPa 0,0 l/m 0 min 0 min 0,0 UV-I 0 W/m 0,0 km/h (0 Bft)
28.07.2014 04:22 18,8 C 17,2 C 95 % 1012,5 hPa 0,0 l/m 0 min 0 min 0,0 UV-I 0 W/m 0,0 km/h (0 Bft)
28.07.2014 04:24 18,8 C 17,2 C 95 % 1012,5 hPa 0,0 l/m 0 min 0 min 0,0 UV-I 0 W/m 0,0 km/h (0 Bft)
28.07.2014 04:26 18,8 C 17,8 C 95 % 1012,5 hPa 0,0 l/m 0 min 0 min 0,0 UV-I 0 W/m 0,0 km/h (0 Bft)
28.07.2014 04:28 18,8 C 17,8 C 95 % 1012,5 hPa 0,0 l/m 0 min 0 min 0,0 UV-I 0 W/m 0,0 km/h (0 Bft)
28.07.2014 04:30 18,8 C 17,8 C 95 % 1012,4 hPa 0,0 l/m 0 min 0 min 0,0 UV-I 0 W/m 0,0 km/h (0 Bft)
28.07.2014 04:32 18,8 C 17,8 C 95 % 1012,4 hPa 0,0 l/m 0 min 0 min 0,0 UV-I 0 W/m 0,0 km/h (0 Bft)
28.07.2014 04:34 18,9 C 17,8 C 95 % 1012,4 hPa 0,0 l/m 0 min 0 min 0,0 UV-I 0 W/m 0,0 km/h (0 Bft)
28.07.2014 04:36 18,9 C 17,8 C 95 % 1012,3 hPa 0,0 l/m 0 min 0 min 0,0 UV-I 0 W/m 0,0 km/h (0 Bft)
28.07.2014 04:38 18,9 C 17,8 C 95 % 1012,3 hPa 0,0 l/m 0 min 0 min 0,0 UV-I 0 W/m 0,0 km/h (0 Bft)
28.07.2014 04:40 18,9 C 17,8 C 95 % 1012,3 hPa 0,0 l/m 0 min 0 min 0,0 UV-I 0 W/m 0,0 km/h (0 Bft)
28.07.2014 04:42 18,9 C 17,8 C 95 % 1012,3 hPa 0,0 l/m 0 min 0 min 0,0 UV-I 0 W/m 0,0 km/h (0 Bft)
28.07.2014 04:44 18,9 C 17,8 C 95 % 1012,4 hPa 0,0 l/m 0 min 0 min 0,0 UV-I 0 W/m 0,0 km/h (0 Bft)
28.07.2014 04:46 18,9 C 17,8 C 94 % 1012,4 hPa 0,0 l/m 0 min 0 min 0,0 UV-I 0 W/m 0,0 km/h (0 Bft)
28.07.2014 04:48 18,8 C 17,8 C 95 % 1012,4 hPa 0,0 l/m 0 min 0 min 0,0 UV-I 0 W/m 0,0 km/h (0 Bft)
28.07.2014 04:50 18,8 C 17,8 C 95 % 1012,4 hPa 0,0 l/m 0 min 0 min 0,0 UV-I 0 W/m 0,0 km/h (0 Bft)
28.07.2014 04:52 18,8 C 17,8 C 95 % 1012,3 hPa 0,0 l/m 0 min 0 min 0,0 UV-I 0 W/m 0,0 km/h (0 Bft)
28.07.2014 04:54 18,8 C 17,8 C 95 % 1012,3 hPa 0,0 l/m 0 min 0 min 0,0 UV-I 0 W/m 0,0 km/h (0 Bft)
28.07.2014 04:56 18,8 C 17,8 C 95 % 1012,2 hPa 0,0 l/m 0 min 0 min 0,0 UV-I 0 W/m 0,0 km/h (0 Bft)
28.07.2014 04:58 18,8 C 17,8 C 95 % 1012,2 hPa 0,0 l/m 0 min 0 min 0,0 UV-I 0 W/m 0,0 km/h (0 Bft)
28.07.2014 05:00 18,8 C 17,8 C 95 % 1012,2 hPa 0,0 l/m 0 min 0 min 0,0 UV-I 0 W/m 2,1 km/h (1 Bft)
28.07.2014 05:02 18,8 C 17,8 C 95 % 1012,1 hPa 0,0 l/m 0 min 0 min 0,0 UV-I 0 W/m 0,0 km/h (0 Bft)
28.07.2014 05:04 18,7 C 17,8 C 95 % 1012,1 hPa 0,0 l/m 0 min 0 min 0,0 UV-I 0 W/m 0,0 km/h (0 Bft)
28.07.2014 05:06 18,7 C 17,8 C 95 % 1012,1 hPa 0,0 l/m 0 min 0 min 0,0 UV-I 0 W/m 0,0 km/h (0 Bft)
28.07.2014 05:08 18,7 C 17,8 C 95 % 1012,0 hPa 0,0 l/m 0 min 0 min 0,0 UV-I 0 W/m 0,0 km/h (0 Bft)
28.07.2014 05:10 18,7 C 17,8 C 95 % 1012,0 hPa 0,0 l/m 0 min 0 min 0,0 UV-I 0 W/m 0,0 km/h (0 Bft)
28.07.2014 05:12 18,7 C 17,8 C 95 % 1012,0 hPa 0,0 l/m 0 min 0 min 0,0 UV-I 0 W/m 0,0 km/h (0 Bft)
28.07.2014 05:14 18,7 C 17,2 C 95 % 1012,0 hPa 0,0 l/m 0 min 0 min 0,0 UV-I 0 W/m 0,0 km/h (0 Bft)
28.07.2014 05:16 18,7 C 17,2 C 95 % 1012,1 hPa 0,0 l/m 0 min 0 min 0,0 UV-I 0 W/m 0,0 km/h (0 Bft)
28.07.2014 05:18 18,7 C 17,8 C 95 % 1012,0 hPa 0,0 l/m 0 min 0 min 0,0 UV-I 0 W/m 0,0 km/h (0 Bft)
28.07.2014 05:20 18,7 C 17,8 C 95 % 1012,1 hPa 0,0 l/m 0 min 0 min 0,0 UV-I 0 W/m 0,0 km/h (0 Bft)
28.07.2014 05:22 18,7 C 17,8 C 95 % 1012,0 hPa 0,0 l/m 0 min 0 min 0,0 UV-I 0 W/m 0,0 km/h (0 Bft)
28.07.2014 05:24 18,7 C 17,8 C 95 % 1012,0 hPa 0,0 l/m 0 min 0 min 0,0 UV-I 0 W/m 0,0 km/h (0 Bft)
28.07.2014 05:26 18,8 C 17,8 C 95 % 1012,0 hPa 0,0 l/m 0 min 0 min 0,0 UV-I 0 W/m 0,0 km/h (0 Bft)
28.07.2014 05:28 18,8 C 17,8 C 95 % 1012,1 hPa 0,0 l/m 0 min 0 min 0,0 UV-I 0 W/m 0,0 km/h (0 Bft)
28.07.2014 05:30 18,8 C 17,8 C 95 % 1012,1 hPa 0,0 l/m 0 min 0 min 0,0 UV-I 0 W/m 0,0 km/h (0 Bft)
28.07.2014 05:32 18,7 C 17,8 C 95 % 1012,0 hPa 0,0 l/m 0 min 0 min 0,0 UV-I 0 W/m 0,0 km/h (0 Bft)
28.07.2014 05:34 18,8 C 17,8 C 95 % 1012,0 hPa 0,0 l/m 0 min 0 min 0,0 UV-I 0 W/m 0,0 km/h (0 Bft)
28.07.2014 05:36 18,8 C 17,8 C 95 % 1012,0 hPa 0,0 l/m 0 min 0 min 0,0 UV-I 0 W/m 0,0 km/h (0 Bft)
28.07.2014 05:38 18,8 C 17,8 C 95 % 1012,0 hPa 0,0 l/m 0 min 0 min 0,0 UV-I 0 W/m 0,0 km/h (0 Bft)
28.07.2014 05:40 18,7 C 17,8 C 95 % 1012,0 hPa 0,0 l/m 0 min 0 min 0,0 UV-I 0 W/m 0,0 km/h (0 Bft)
28.07.2014 05:42 18,7 C 17,8 C 95 % 1012,0 hPa 0,0 l/m 0 min 0 min 0,0 UV-I 0 W/m 0,0 km/h (0 Bft)
28.07.2014 05:44 18,7 C 17,2 C 95 % 1012,0 hPa 0,0 l/m 0 min 0 min 0,0 UV-I 4 W/m 0,0 km/h (0 Bft)
28.07.2014 05:46 18,6 C 17,2 C 95 % 1011,9 hPa 0,0 l/m 0 min 0 min 0,0 UV-I 6 W/m 0,0 km/h (0 Bft)
28.07.2014 05:48 18,6 C 17,2 C 95 % 1012,0 hPa 0,0 l/m 0 min 0 min 0,0 UV-I 8 W/m 0,0 km/h (0 Bft)
28.07.2014 05:50 18,6 C 17,2 C 95 % 1011,9 hPa 0,0 l/m 0 min 0 min 0,0 UV-I 10 W/m 0,0 km/h (0 Bft)
28.07.2014 05:52 18,5 C 17,2 C 95 % 1011,9 hPa 0,0 l/m 0 min 0 min 0,0 UV-I 11 W/m 0,0 km/h (0 Bft)
28.07.2014 05:54 18,5 C 17,2 C 95 % 1011,9 hPa 0,0 l/m 0 min 0 min 0,0 UV-I 13 W/m 0,0 km/h (0 Bft)
28.07.2014 05:56 18,6 C 17,2 C 96 % 1011,9 hPa 0,0 l/m 0 min 0 min 0,0 UV-I 15 W/m 0,0 km/h (0 Bft)
28.07.2014 05:58 18,6 C 17,2 C 96 % 1011,9 hPa 0,0 l/m 0 min 0 min 0,0 UV-I 16 W/m 0,0 km/h (0 Bft)
28.07.2014 06:00 18,6 C 17,2 C 96 % 1011,9 hPa 0,0 l/m 0 min 0 min 0,0 UV-I 16 W/m 0,0 km/h (0 Bft)
28.07.2014 06:02 18,6 C 17,2 C 96 % 1011,9 hPa 0,0 l/m 0 min 0 min 0,0 UV-I 16 W/m 0,0 km/h (0 Bft)
28.07.2014 06:06 18,6 C 17,2 C 96 % 1011,9 hPa 0,0 l/m 2 min 0 min 0,0 UV-I 16 W/m 0,0 km/h (0 Bft)
28.07.2014 06:08 18,6 C 17,2 C 96 % 1011,9 hPa 0,0 l/m 2 min 0 min 0,0 UV-I 18 W/m 0,0 km/h (0 Bft)
28.07.2014 06:10 18,6 C 17,2 C 96 % 1011,9 hPa 0,0 l/m 2 min 0 min 0,0 UV-I 18 W/m 0,0 km/h (0 Bft)
28.07.2014 06:12 18,7 C 17,2 C 96 % 1011,8 hPa 0,0 l/m 2 min 0 min 0,0 UV-I 19 W/m 0,0 km/h (0 Bft)
28.07.2014 06:14 18,7 C 17,8 C 96 % 1011,9 hPa 0,0 l/m 2 min 0 min 0,0 UV-I 19 W/m 0,0 km/h (0 Bft)
28.07.2014 06:16 18,7 C 17,8 C 96 % 1011,9 hPa 0,0 l/m 0 min 0 min 0,0 UV-I 19 W/m 0,0 km/h (0 Bft)
28.07.2014 06:18 18,7 C 17,8 C 96 % 1011,9 hPa 0,0 l/m 0 min 0 min 0,0 UV-I 19 W/m 0,0 km/h (0 Bft)
28.07.2014 06:20 18,7 C 17,8 C 96 % 1011,9 hPa 0,0 l/m 0 min 0 min 0,0 UV-I 16 W/m 0,0 km/h (0 Bft)
28.07.2014 06:22 18,7 C 17,8 C 96 % 1011,9 hPa 0,0 l/m 0 min 0 min 0,0 UV-I 14 W/m 0,0 km/h (0 Bft)
28.07.2014 06:24 18,8 C 17,8 C 96 % 1012,0 hPa 0,0 l/m 0 min 0 min 0,0 UV-I 14 W/m 0,0 km/h (0 Bft)
28.07.2014 06:26 18,8 C 17,8 C 96 % 1011,9 hPa 0,0 l/m 0 min 0 min 0,0 UV-I 12 W/m 0,0 km/h (0 Bft)
28.07.2014 06:28 18,8 C 17,8 C 96 % 1011,9 hPa 0,0 l/m 0 min 0 min 0,0 UV-I 12 W/m 0,0 km/h (0 Bft)
28.07.2014 06:30 18,8 C 17,8 C 96 % 1011,9 hPa 0,0 l/m 0 min 0 min 0,0 UV-I 15 W/m 0,0 km/h (0 Bft)
28.07.2014 06:32 18,8 C 17,8 C 96 % 1011,9 hPa 0,0 l/m 0 min 0 min 0,0 UV-I 16 W/m 0,0 km/h (0 Bft)
28.07.2014 06:34 18,7 C 17,8 C 96 % 1011,9 hPa 0,0 l/m 0 min 0 min 0,0 UV-I 18 W/m 0,0 km/h (0 Bft)
28.07.2014 06:36 18,7 C 17,8 C 96 % 1011,9 hPa 0,0 l/m 0 min 0 min 0,0 UV-I 18 W/m 0,0 km/h (0 Bft)
28.07.2014 06:38 18,7 C 17,8 C 96 % 1011,9 hPa 0,0 l/m 0 min 0 min 0,0 UV-I 18 W/m 0,0 km/h (0 Bft)
28.07.2014 06:40 18,7 C 17,8 C 96 % 1011,9 hPa 0,0 l/m 0 min 0 min 0,0 UV-I 17 W/m 0,0 km/h (0 Bft)
28.07.2014 06:42 18,7 C 17,8 C 96 % 1011,9 hPa 0,0 l/m 0 min 0 min 0,0 UV-I 15 W/m 0,0 km/h (0 Bft)
28.07.2014 06:44 18,7 C 17,8 C 96 % 1011,9 hPa 0,0 l/m 0 min 0 min 0,0 UV-I 14 W/m 0,0 km/h (0 Bft)
28.07.2014 06:46 18,7 C 17,8 C 96 % 1011,9 hPa 0,0 l/m 0 min 0 min 0,0 UV-I 14 W/m 0,0 km/h (0 Bft)
28.07.2014 06:48 18,8 C 17,8 C 96 % 1011,9 hPa 0,0 l/m 0 min 0 min 0,0 UV-I 15 W/m 0,0 km/h (0 Bft)
28.07.2014 06:50 18,8 C 17,8 C 96 % 1011,9 hPa 0,0 l/m 0 min 0 min 0,0 UV-I 16 W/m 0,0 km/h (0 Bft)
28.07.2014 06:52 18,8 C 17,8 C 96 % 1011,9 hPa 0,0 l/m 0 min 0 min 0,0 UV-I 16 W/m 0,0 km/h (0 Bft)
28.07.2014 06:54 18,8 C 17,8 C 96 % 1011,9 hPa 0,0 l/m 0 min 0 min 0,0 UV-I 18 W/m 0,0 km/h (0 Bft)
28.07.2014 06:56 18,8 C 17,8 C 96 % 1011,9 hPa 0,0 l/m 0 min 0 min 0,0 UV-I 20 W/m 0,0 km/h (0 Bft)
28.07.2014 06:58 18,8 C 17,8 C 96 % 1011,9 hPa 0,0 l/m 0 min 0 min 0,0 UV-I 23 W/m 0,0 km/h (0 Bft)
28.07.2014 07:00 18,9 C 17,8 C 96 % 1012,0 hPa 0,0 l/m 0 min 0 min 0,0 UV-I 25 W/m 0,0 km/h (0 Bft)
28.07.2014 07:02 18,8 C 17,8 C 96 % 1011,9 hPa 0,0 l/m 0 min 0 min 0,0 UV-I 29 W/m 0,0 km/h (0 Bft)
28.07.2014 07:04 18,9 C 17,8 C 96 % 1011,9 hPa 0,0 l/m 0 min 0 min 0,0 UV-I 33 W/m 0,0 km/h (0 Bft)
28.07.2014 07:06 18,9 C 17,8 C 96 % 1011,9 hPa 0,0 l/m 0 min 0 min 0,0 UV-I 36 W/m 0,0 km/h (0 Bft)
28.07.2014 07:08 18,9 C 17,8 C 95 % 1012,0 hPa 0,0 l/m 0 min 0 min 0,0 UV-I 37 W/m 0,0 km/h (0 Bft)
28.07.2014 07:10 19,0 C 18,3 C 95 % 1011,9 hPa 0,0 l/m 0 min 0 min 0,0 UV-I 37 W/m 0,0 km/h (0 Bft)
28.07.2014 07:12 19,1 C 18,3 C 95 % 1011,9 hPa 0,0 l/m 0 min 0 min 0,0 UV-I 39 W/m 0,0 km/h (0 Bft)
28.07.2014 07:14 19,1 C 18,3 C 95 % 1011,9 hPa 0,0 l/m 0 min 0 min 0,0 UV-I 39 W/m 0,0 km/h (0 Bft)
28.07.2014 07:16 19,1 C 18,3 C 95 % 1011,9 hPa 0,0 l/m 0 min 0 min 0,0 UV-I 39 W/m 2,1 km/h (1 Bft)
28.07.2014 07:18 19,1 C 18,3 C 95 % 1011,9 hPa 0,0 l/m 0 min 0 min 0,0 UV-I 40 W/m 0,0 km/h (0 Bft)
28.07.2014 07:20 19,2 C 18,3 C 95 % 1011,9 hPa 0,0 l/m 0 min 0 min 0,0 UV-I 40 W/m 0,0 km/h (0 Bft)
28.07.2014 07:22 19,2 C 18,3 C 95 % 1011,9 hPa 0,0 l/m 0 min 0 min 0,0 UV-I 40 W/m 2,1 km/h (1 Bft)
28.07.2014 07:24 19,3 C 18,3 C 94 % 1011,8 hPa 0,0 l/m 0 min 0 min 0,0 UV-I 40 W/m 0,0 km/h (0 Bft)
28.07.2014 07:26 19,3 C 18,3 C 94 % 1011,8 hPa 0,0 l/m 0 min 0 min 0,0 UV-I 43 W/m 0,0 km/h (0 Bft)
28.07.2014 07:28 19,4 C 18,3 C 94 % 1011,8 hPa 0,0 l/m 0 min 0 min 0,0 UV-I 47 W/m 0,0 km/h (0 Bft)
28.07.2014 07:30 19,4 C 18,3 C 94 % 1011,8 hPa 0,0 l/m 0 min 0 min 0,0 UV-I 49 W/m 0,0 km/h (0 Bft)
28.07.2014 07:32 19,4 C 18,3 C 94 % 1011,8 hPa 0,0 l/m 0 min 0 min 0,0 UV-I 53 W/m 0,0 km/h (0 Bft)
28.07.2014 07:34 19,4 C 18,3 C 94 % 1011,7 hPa 0,0 l/m 0 min 0 min 0,0 UV-I 54 W/m 0,0 km/h (0 Bft)
28.07.2014 07:36 19,5 C 18,3 C 93 % 1011,8 hPa 0,0 l/m 0 min 2 min 0,0 UV-I 56 W/m 0,0 km/h (0 Bft)
28.07.2014 07:38 19,6 C 18,3 C 93 % 1011,7 hPa 0,0 l/m 0 min 2 min 0,0 UV-I 58 W/m 0,0 km/h (0 Bft)
28.07.2014 07:40 19,6 C 18,3 C 93 % 1011,7 hPa 0,0 l/m 0 min 2 min 0,0 UV-I 56 W/m 0,0 km/h (0 Bft)
28.07.2014 07:42 19,6 C 18,3 C 93 % 1011,7 hPa 0,0 l/m 0 min 2 min 0,0 UV-I 52 W/m 0,0 km/h (0 Bft)
28.07.2014 07:44 19,6 C 18,3 C 93 % 1011,6 hPa 0,0 l/m 0 min 0 min 0,0 UV-I 49 W/m 8,4 km/h (2 Bft)
28.07.2014 07:46 19,6 C 18,3 C 93 % 1011,6 hPa 0,0 l/m 0 min 0 min 0,0 UV-I 46 W/m 0,0 km/h (0 Bft)
28.07.2014 07:48 19,7 C 18,3 C 93 % 1011,6 hPa 0,0 l/m 0 min 0 min 0,0 UV-I 42 W/m 0,0 km/h (0 Bft)
28.07.2014 07:50 19,7 C 18,3 C 93 % 1011,6 hPa 0,0 l/m 0 min 0 min 0,0 UV-I 42 W/m 0,0 km/h (0 Bft)
28.07.2014 07:52 19,7 C 18,3 C 93 % 1011,6 hPa 0,0 l/m 0 min 0 min 0,0 UV-I 44 W/m 0,0 km/h (0 Bft)
28.07.2014 07:54 19,7 C 18,3 C 93 % 1011,7 hPa 0,0 l/m 0 min 0 min 0,0 UV-I 48 W/m 0,0 km/h (0 Bft)
28.07.2014 07:56 19,7 C 18,3 C 93 % 1011,7 hPa 0,0 l/m 0 min 2 min 0,0 UV-I 55 W/m 0,0 km/h (0 Bft)
28.07.2014 07:58 19,7 C 18,3 C 93 % 1011,7 hPa 0,0 l/m 0 min 0 min 0,0 UV-I 65 W/m 0,0 km/h (0 Bft)
28.07.2014 08:00 19,7 C 18,3 C 93 % 1011,6 hPa 0,0 l/m 0 min 0 min 0,0 UV-I 75 W/m 0,0 km/h (0 Bft)
28.07.2014 08:02 19,7 C 18,9 C 93 % 1011,6 hPa 0,0 l/m 0 min 0 min 0,0 UV-I 80 W/m 0,0 km/h (0 Bft)
28.07.2014 08:04 19,8 C 18,9 C 93 % 1011,6 hPa 0,0 l/m 0 min 0 min 0,0 UV-I 84 W/m 2,1 km/h (1 Bft)
28.07.2014 08:06 19,8 C 18,9 C 93 % 1011,6 hPa 0,0 l/m 0 min 0 min 0,0 UV-I 84 W/m 0,0 km/h (0 Bft)
28.07.2014 08:08 19,8 C 18,9 C 93 % 1011,6 hPa 0,0 l/m 0 min 0 min 0,0 UV-I 83 W/m 0,0 km/h (0 Bft)
28.07.2014 08:10 19,8 C 18,9 C 92 % 1011,5 hPa 0,0 l/m 0 min 0 min 0,0 UV-I 83 W/m 0,0 km/h (0 Bft)
28.07.2014 08:12 19,9 C 19,4 C 92 % 1011,6 hPa 0,0 l/m 0 min 0 min 0,0 UV-I 85 W/m 0,0 km/h (0 Bft)
28.07.2014 08:14 19,9 C 19,4 C 92 % 1011,5 hPa 0,0 l/m 0 min 0 min 0,0 UV-I 93 W/m 0,0 km/h (0 Bft)
28.07.2014 08:16 19,9 C 19,4 C 92 % 1011,6 hPa 0,0 l/m 0 min 2 min 0,0 UV-I 107 W/m 0,0 km/h (0 Bft)
28.07.2014 08:18 20,0 C 19,4 C 92 % 1011,6 hPa 0,0 l/m 0 min 2 min 0,0 UV-I 130 W/m 0,0 km/h (0 Bft)
28.07.2014 08:20 20,0 C 19,4 C 92 % 1011,6 hPa 0,0 l/m 2 min 2 min 0,0 UV-I 199 W/m 0,0 km/h (0 Bft)
28.07.2014 08:22 20,1 C 19,4 C 92 % 1011,6 hPa 0,0 l/m 2 min 2 min 0,0 UV-I 284 W/m 0,0 km/h (0 Bft)
28.07.2014 08:24 20,2 C 19,4 C 92 % 1011,5 hPa 0,0 l/m 2 min 0 min 0,0 UV-I 306 W/m 0,0 km/h (0 Bft)
28.07.2014 08:26 20,2 C 19,4 C 92 % 1011,5 hPa 0,0 l/m 2 min 0 min 0,0 UV-I 328 W/m 2,1 km/h (1 Bft)
28.07.2014 08:28 20,3 C 19,4 C 91 % 1011,5 hPa 0,0 l/m 2 min 0 min 0,0 UV-I 285 W/m 2,1 km/h (1 Bft)
28.07.2014 08:30 20,4 C 20,0 C 91 % 1011,5 hPa 0,0 l/m 2 min 0 min 0,0 UV-I 293 W/m 0,0 km/h (0 Bft)
28.07.2014 08:32 20,5 C 20,0 C 91 % 1011,5 hPa 0,0 l/m 2 min 0 min 0,0 UV-I 230 W/m 0,0 km/h (0 Bft)
28.07.2014 08:34 20,6 C 20,0 C 90 % 1011,5 hPa 0,0 l/m 2 min 0 min 0,0 UV-I 222 W/m 2,1 km/h (1 Bft)
28.07.2014 08:36 20,7 C 20,0 C 90 % 1011,5 hPa 0,0 l/m 2 min 0 min 0,0 UV-I 211 W/m 0,0 km/h (0 Bft)
28.07.2014 08:38 20,7 C 20,6 C 89 % 1011,4 hPa 0,0 l/m 2 min 0 min 0,0 UV-I 198 W/m 6,3 km/h (2 Bft)
28.07.2014 08:40 20,8 C 20,6 C 89 % 1011,4 hPa 0,0 l/m 0 min 0 min 0,0 UV-I 177 W/m 6,3 km/h (2 Bft)
28.07.2014 08:42 20,8 C 20,6 C 89 % 1011,4 hPa 0,0 l/m 0 min 0 min 0,0 UV-I 171 W/m 8,4 km/h (2 Bft)
28.07.2014 08:44 20,9 C 20,6 C 89 % 1011,4 hPa 0,0 l/m 0 min 0 min 0,0 UV-I 185 W/m 8,4 km/h (2 Bft)
28.07.2014 08:46 20,9 C 20,6 C 89 % 1011,4 hPa 0,0 l/m 0 min 0 min 0,0 UV-I 201 W/m 8,4 km/h (2 Bft)
28.07.2014 08:48 20,9 C 20,6 C 89 % 1011,4 hPa 0,0 l/m 2 min 0 min 0,0 UV-I 275 W/m 8,4 km/h (2 Bft)
28.07.2014 08:50 21,0 C 20,6 C 89 % 1011,4 hPa 0,0 l/m 2 min 0 min 0,5 UV-I 363 W/m 8,4 km/h (2 Bft)
28.07.2014 08:52 21,2 C 20,6 C 88 % 1011,3 hPa 0,0 l/m 2 min 0 min 0,5 UV-I 352 W/m 2,1 km/h (1 Bft)
28.07.2014 08:54 21,3 C 20,6 C 88 % 1011,3 hPa 0,0 l/m 2 min 0 min 0,5 UV-I 358 W/m 14,6 km/h (3 Bft)
28.07.2014 08:56 21,4 C 20,6 C 87 % 1011,2 hPa 0,0 l/m 2 min 0 min 0,6 UV-I 352 W/m 8,4 km/h (2 Bft)
28.07.2014 08:58 21,4 C 20,6 C 87 % 1011,3 hPa 0,0 l/m 2 min 0 min 0,6 UV-I 353 W/m 0,0 km/h (0 Bft)
28.07.2014 09:00 21,6 C 20,6 C 87 % 1011,2 hPa 0,0 l/m 2 min 0 min 0,6 UV-I 367 W/m 12,6 km/h (3 Bft)
28.07.2014 09:02 21,7 C 20,6 C 87 % 1011,3 hPa 0,0 l/m 2 min 0 min 0,7 UV-I 373 W/m 10,5 km/h (2 Bft)
28.07.2014 09:04 21,7 C 20,6 C 86 % 1011,3 hPa 0,0 l/m 2 min 0 min 0,7 UV-I 385 W/m 12,6 km/h (3 Bft)
28.07.2014 09:06 21,8 C 20,6 C 86 % 1011,3 hPa 0,0 l/m 2 min 0 min 0,8 UV-I 394 W/m 8,4 km/h (2 Bft)
28.07.2014 09:08 21,9 C 20,6 C 86 % 1011,2 hPa 0,0 l/m 2 min 0 min 0,8 UV-I 377 W/m 8,4 km/h (2 Bft)
28.07.2014 09:10 21,9 C 20,6 C 86 % 1011,2 hPa 0,0 l/m 2 min 0 min 0,6 UV-I 297 W/m 10,5 km/h (2 Bft)
28.07.2014 09:12 22,0 C 20,6 C 85 % 1011,2 hPa 0,0 l/m 0 min 0 min 0,6 UV-I 204 W/m 0,0 km/h (0 Bft)
28.07.2014 09:14 22,1 C 20,6 C 85 % 1011,2 hPa 0,0 l/m 0 min 0 min 0,6 UV-I 176 W/m 6,3 km/h (2 Bft)
28.07.2014 09:16 22,0 C 20,6 C 85 % 1011,2 hPa 0,0 l/m 0 min 0 min 0,7 UV-I 188 W/m 6,3 km/h (2 Bft)
28.07.2014 09:18 22,1 C 20,6 C 85 % 1011,2 hPa 0,0 l/m 2 min 0 min 0,8 UV-I 285 W/m 6,3 km/h (2 Bft)
28.07.2014 09:20 22,2 C 21,1 C 85 % 1011,2 hPa 0,0 l/m 2 min 0 min 1,0 UV-I 412 W/m 14,6 km/h (3 Bft)
28.07.2014 09:22 22,2 C 21,1 C 84 % 1011,1 hPa 0,0 l/m 2 min 0 min 1,0 UV-I 418 W/m 6,3 km/h (2 Bft)
28.07.2014 09:24 22,4 C 21,1 C 84 % 1011,1 hPa 0,0 l/m 2 min 0 min 1,0 UV-I 418 W/m 10,5 km/h (2 Bft)
28.07.2014 09:26 22,6 C 21,1 C 83 % 1011,1 hPa 0,0 l/m 2 min 0 min 1,1 UV-I 424 W/m 14,6 km/h (3 Bft)
28.07.2014 09:28 22,6 C 21,1 C 83 % 1011,1 hPa 0,0 l/m 2 min 0 min 1,1 UV-I 433 W/m 10,5 km/h (2 Bft)
28.07.2014 09:30 22,8 C 21,7 C 82 % 1011,1 hPa 0,0 l/m 2 min 0 min 1,1 UV-I 416 W/m 16,7 km/h (3 Bft)
28.07.2014 09:32 22,8 C 21,7 C 81 % 1011,2 hPa 0,0 l/m 2 min 0 min 1,1 UV-I 424 W/m 16,7 km/h (3 Bft)
28.07.2014 09:34 22,9 C 21,7 C 81 % 1011,1 hPa 0,0 l/m 2 min 0 min 1,1 UV-I 406 W/m 14,6 km/h (3 Bft)
28.07.2014 09:36 22,9 C 21,7 C 81 % 1011,0 hPa 0,0 l/m 2 min 0 min 1,2 UV-I 394 W/m 14,6 km/h (3 Bft)
28.07.2014 09:38 23,0 C 21,7 C 81 % 1011,0 hPa 0,0 l/m 2 min 0 min 1,2 UV-I 412 W/m 8,4 km/h (2 Bft)
28.07.2014 09:40 23,1 C 21,7 C 81 % 1011,0 hPa 0,0 l/m 2 min 0 min 1,2 UV-I 419 W/m 16,7 km/h (3 Bft)
28.07.2014 09:42 23,2 C 22,2 C 81 % 1010,9 hPa 0,0 l/m 2 min 0 min 1,2 UV-I 417 W/m 18,8 km/h (3 Bft)
28.07.2014 09:44 23,3 C 22,2 C 79 % 1010,9 hPa 0,0 l/m 2 min 0 min 1,1 UV-I 366 W/m 14,6 km/h (3 Bft)
28.07.2014 09:46 23,2 C 21,7 C 79 % 1010,9 hPa 0,0 l/m 0 min 0 min 1,0 UV-I 224 W/m 16,7 km/h (3 Bft)
28.07.2014 09:48 23,1 C 21,7 C 80 % 1011,0 hPa 0,0 l/m 0 min 0 min 1,0 UV-I 244 W/m 14,6 km/h (3 Bft)
28.07.2014 09:50 23,1 C 22,2 C 80 % 1010,9 hPa 0,0 l/m 0 min 0 min 1,0 UV-I 252 W/m 12,6 km/h (3 Bft)
28.07.2014 09:52 23,0 C 21,7 C 80 % 1011,0 hPa 0,0 l/m 0 min 0 min 1,0 UV-I 238 W/m 12,6 km/h (3 Bft)
28.07.2014 09:54 23,0 C 22,2 C 81 % 1010,9 hPa 0,0 l/m 0 min 0 min 1,0 UV-I 230 W/m 14,6 km/h (3 Bft)
28.07.2014 09:56 22,9 C 22,2 C 81 % 1010,9 hPa 0,0 l/m 0 min 0 min 1,0 UV-I 244 W/m 12,6 km/h (3 Bft)
28.07.2014 09:58 23,0 C 22,2 C 81 % 1010,9 hPa 0,0 l/m 0 min 0 min 1,1 UV-I 263 W/m 16,7 km/h (3 Bft)
28.07.2014 10:00 22,9 C 22,2 C 81 % 1010,9 hPa 0,0 l/m 0 min 0 min 1,0 UV-I 255 W/m 12,6 km/h (3 Bft)
28.07.2014 10:02 22,9 C 22,2 C 80 % 1010,8 hPa 0,0 l/m 0 min 0 min 1,1 UV-I 258 W/m 10,5 km/h (2 Bft)
28.07.2014 10:04 22,8 C 22,2 C 80 % 1010,8 hPa 0,0 l/m 0 min 0 min 1,1 UV-I 273 W/m 10,5 km/h (2 Bft)
28.07.2014 10:06 22,9 C 22,2 C 81 % 1010,8 hPa 0,0 l/m 2 min 0 min 1,2 UV-I 304 W/m 14,6 km/h (3 Bft)
28.07.2014 10:08 22,9 C 22,2 C 80 % 1010,8 hPa 0,0 l/m 2 min 0 min 1,3 UV-I 326 W/m 14,6 km/h (3 Bft)
28.07.2014 10:10 22,9 C 22,8 C 80 % 1010,7 hPa 0,0 l/m 2 min 0 min 1,5 UV-I 373 W/m 12,6 km/h (3 Bft)
28.07.2014 10:12 23,1 C 23,9 C 80 % 1010,7 hPa 0,0 l/m 2 min 0 min 1,9 UV-I 507 W/m 18,8 km/h (3 Bft)
28.07.2014 10:14 23,3 C 25,0 C 80 % 1010,6 hPa 0,0 l/m 2 min 0 min 1,9 UV-I 591 W/m 14,6 km/h (3 Bft)
28.07.2014 10:16 23,4 C 24,4 C 79 % 1010,6 hPa 0,0 l/m 2 min 0 min 1,7 UV-I 372 W/m 16,7 km/h (3 Bft)
28.07.2014 10:18 23,6 C 24,4 C 79 % 1010,7 hPa 0,0 l/m 2 min 0 min 1,8 UV-I 426 W/m 12,6 km/h (3 Bft)
28.07.2014 10:20 23,7 C 25,6 C 79 % 1010,7 hPa 0,0 l/m 2 min 0 min 2,1 UV-I 496 W/m 16,7 km/h (3 Bft)
28.07.2014 10:22 23,8 C 25,6 C 78 % 1010,7 hPa 0,0 l/m 2 min 0 min 2,2 UV-I 599 W/m 16,7 km/h (3 Bft)
28.07.2014 10:24 23,9 C 26,7 C 78 % 1010,6 hPa 0,0 l/m 2 min 0 min 2,2 UV-I 611 W/m 16,7 km/h (3 Bft)
28.07.2014 10:26 24,2 C 26,7 C 78 % 1010,7 hPa 0,0 l/m 2 min 0 min 2,3 UV-I 610 W/m 16,7 km/h (3 Bft)
28.07.2014 10:28 24,3 C 27,2 C 77 % 1010,7 hPa 0,0 l/m 2 min 0 min 2,3 UV-I 644 W/m 14,6 km/h (3 Bft)
28.07.2014 10:30 24,4 C 27,8 C 77 % 1010,7 hPa 0,0 l/m 2 min 0 min 2,3 UV-I 632 W/m 23,0 km/h (4 Bft)
28.07.2014 10:32 24,6 C 27,8 C 76 % 1010,8 hPa 0,0 l/m 2 min 0 min 2,2 UV-I 634 W/m 10,5 km/h (2 Bft)
28.07.2014 10:34 24,7 C 27,2 C 76 % 1010,7 hPa 0,0 l/m 2 min 0 min 1,9 UV-I 488 W/m 16,7 km/h (3 Bft)
28.07.2014 10:36 24,7 C 26,1 C 75 % 1010,7 hPa 0,0 l/m 2 min 0 min 1,6 UV-I 364 W/m 20,9 km/h (4 Bft)
28.07.2014 10:38 24,5 C 25,6 C 75 % 1010,7 hPa 0,0 l/m 2 min 0 min 1,7 UV-I 369 W/m 16,7 km/h (3 Bft)
28.07.2014 10:40 24,3 C 25,0 C 75 % 1010,7 hPa 0,0 l/m 2 min 0 min 1,6 UV-I 337 W/m 16,7 km/h (3 Bft)
28.07.2014 10:42 24,2 C 25,0 C 76 % 1010,7 hPa 0,0 l/m 2 min 0 min 2,1 UV-I 329 W/m 14,6 km/h (3 Bft)
28.07.2014 10:44 24,4 C 25,6 C 76 % 1010,7 hPa 0,0 l/m 2 min 0 min 2,5 UV-I 465 W/m 14,6 km/h (3 Bft)
28.07.2014 10:46 24,6 C 25,6 C 76 % 1010,6 hPa 0,0 l/m 2 min 0 min 2,6 UV-I 639 W/m 14,6 km/h (3 Bft)
28.07.2014 10:48 24,7 C 25,6 C 75 % 1010,6 hPa 0,0 l/m 2 min 0 min 2,6 UV-I 605 W/m 16,7 km/h (3 Bft)
28.07.2014 10:50 24,7 C 25,0 C 75 % 1010,7 hPa 0,0 l/m 2 min 0 min 2,6 UV-I 607 W/m 16,7 km/h (3 Bft)
28.07.2014 10:52 24,8 C 25,6 C 76 % 1010,7 hPa 0,0 l/m 2 min 0 min 2,6 UV-I 650 W/m 16,7 km/h (3 Bft)
28.07.2014 10:54 24,9 C 25,6 C 74 % 1010,7 hPa 0,0 l/m 2 min 0 min 2,8 UV-I 598 W/m 10,5 km/h (2 Bft)
28.07.2014 10:56 25,0 C 26,1 C 76 % 1010,6 hPa 0,0 l/m 2 min 0 min 2,9 UV-I 576 W/m 10,5 km/h (2 Bft)
28.07.2014 10:58 25,2 C 26,7 C 75 % 1010,6 hPa 0,0 l/m 2 min 0 min 2,9 UV-I 682 W/m 14,6 km/h (3 Bft)
28.07.2014 11:00 25,4 C 27,2 C 74 % 1010,6 hPa 0,0 l/m 2 min 0 min 2,9 UV-I 679 W/m 14,6 km/h (3 Bft)
28.07.2014 11:02 25,5 C 27,2 C 72 % 1010,5 hPa 0,0 l/m 2 min 0 min 2,9 UV-I 667 W/m 14,6 km/h (3 Bft)
28.07.2014 11:04 25,3 C 26,7 C 72 % 1010,6 hPa 0,0 l/m 2 min 0 min 2,7 UV-I 548 W/m 12,6 km/h (3 Bft)
28.07.2014 11:06 25,3 C 26,7 C 75 % 1010,5 hPa 0,0 l/m 2 min 0 min 2,3 UV-I 465 W/m 8,4 km/h (2 Bft)
28.07.2014 11:08 25,3 C 26,1 C 74 % 1010,6 hPa 0,0 l/m 2 min 0 min 2,6 UV-I 417 W/m 20,9 km/h (4 Bft)
28.07.2014 11:10 25,4 C 26,1 C 74 % 1010,6 hPa 0,0 l/m 2 min 0 min 2,5 UV-I 420 W/m 18,8 km/h (3 Bft)
28.07.2014 11:12 25,4 C 26,1 C 74 % 1010,5 hPa 0,0 l/m 2 min 0 min 2,3 UV-I 457 W/m 12,6 km/h (3 Bft)
28.07.2014 11:14 25,3 C 25,6 C 73 % 1010,5 hPa 0,0 l/m 2 min 0 min 2,2 UV-I 443 W/m 10,5 km/h (2 Bft)
28.07.2014 11:16 25,2 C 25,6 C 73 % 1010,5 hPa 0,0 l/m 2 min 0 min 2,1 UV-I 357 W/m 16,7 km/h (3 Bft)
28.07.2014 11:18 25,2 C 25,6 C 72 % 1010,6 hPa 0,0 l/m 2 min 0 min 2,3 UV-I 383 W/m 14,6 km/h (3 Bft)
28.07.2014 11:20 25,1 C 25,6 C 73 % 1010,5 hPa 0,0 l/m 2 min 0 min 2,3 UV-I 408 W/m 14,6 km/h (3 Bft)
28.07.2014 11:22 25,0 C 25,6 C 72 % 1010,5 hPa 0,0 l/m 2 min 0 min 2,5 UV-I 429 W/m 18,8 km/h (3 Bft)
28.07.2014 11:24 25,2 C 26,1 C 73 % 1010,5 hPa 0,0 l/m 2 min 0 min 2,9 UV-I 701 W/m 8,4 km/h (2 Bft)
28.07.2014 11:26 25,4 C 26,1 C 71 % 1010,4 hPa 0,0 l/m 2 min 0 min 2,6 UV-I 571 W/m 14,6 km/h (3 Bft)
28.07.2014 11:28 25,6 C 25,6 C 72 % 1010,4 hPa 0,0 l/m 0 min 0 min 2,2 UV-I 330 W/m 16,7 km/h (3 Bft)
28.07.2014 11:30 25,6 C 25,6 C 71 % 1010,5 hPa 0,0 l/m 2 min 0 min 2,1 UV-I 377 W/m 18,8 km/h (3 Bft)
28.07.2014 11:32 25,5 C 25,6 C 72 % 1010,5 hPa 0,0 l/m 0 min 0 min 2,0 UV-I 311 W/m 10,5 km/h (2 Bft)
28.07.2014 11:34 25,5 C 25,6 C 73 % 1010,4 hPa 0,0 l/m 0 min 0 min 2,1 UV-I 324 W/m 10,5 km/h (2 Bft)
28.07.2014 11:36 25,4 C 25,6 C 72 % 1010,4 hPa 0,0 l/m 0 min 0 min 2,3 UV-I 357 W/m 10,5 km/h (2 Bft)
28.07.2014 11:38 25,5 C 26,1 C 73 % 1010,3 hPa 0,0 l/m 2 min 0 min 2,8 UV-I 451 W/m 12,6 km/h (3 Bft)
28.07.2014 11:40 25,7 C 27,2 C 72 % 1010,3 hPa 0,0 l/m 2 min 0 min 3,6 UV-I 543 W/m 16,7 km/h (3 Bft)
28.07.2014 11:42 26,0 C 27,8 C 72 % 1010,3 hPa 0,0 l/m 2 min 0 min 3,5 UV-I 660 W/m 12,6 km/h (3 Bft)
28.07.2014 11:44 26,2 C 27,8 C 70 % 1010,2 hPa 0,0 l/m 2 min 0 min 3,5 UV-I 653 W/m 20,9 km/h (4 Bft)
28.07.2014 11:46 26,2 C 28,3 C 71 % 1010,2 hPa 0,0 l/m 2 min 0 min 3,5 UV-I 661 W/m 16,7 km/h (3 Bft)
28.07.2014 11:48 26,2 C 27,8 C 69 % 1010,2 hPa 0,0 l/m 2 min 0 min 3,6 UV-I 663 W/m 14,6 km/h (3 Bft)
28.07.2014 11:50 26,2 C 27,8 C 69 % 1010,1 hPa 0,0 l/m 2 min 0 min 3,6 UV-I 650 W/m 18,8 km/h (3 Bft)
28.07.2014 11:52 26,1 C 28,3 C 69 % 1010,2 hPa 0,0 l/m 2 min 0 min 3,6 UV-I 650 W/m 12,6 km/h (3 Bft)
28.07.2014 11:54 26,2 C 28,3 C 70 % 1010,1 hPa 0,0 l/m 2 min 0 min 3,6 UV-I 648 W/m 16,7 km/h (3 Bft)
28.07.2014 11:56 26,3 C 28,9 C 69 % 1010,1 hPa 0,0 l/m 2 min 0 min 3,7 UV-I 672 W/m 12,6 km/h (3 Bft)
28.07.2014 11:58 26,3 C 28,9 C 70 % 1010,0 hPa 0,0 l/m 2 min 0 min 3,7 UV-I 663 W/m 8,4 km/h (2 Bft)
28.07.2014 12:00 26,5 C 28,3 C 69 % 1010,0 hPa 0,0 l/m 2 min 0 min 3,3 UV-I 654 W/m 16,7 km/h (3 Bft)
28.07.2014 12:02 26,6 C 28,9 C 71 % 1010,1 hPa 0,0 l/m 2 min 0 min 3,6 UV-I 632 W/m 18,8 km/h (3 Bft)
28.07.2014 12:06 26,7 C 28,9 C 69 % 1009,9 hPa 0,0 l/m 2 min 0 min 3,7 UV-I 627 W/m 18,8 km/h (3 Bft)
28.07.2014 12:08 26,7 C 29,4 C 67 % 1010,0 hPa 0,0 l/m 2 min 0 min 3,9 UV-I 695 W/m 14,6 km/h (3 Bft)
28.07.2014 12:10 26,9 C 30,0 C 70 % 1009,8 hPa 0,0 l/m 2 min 0 min 4,1 UV-I 712 W/m 14,6 km/h (3 Bft)
28.07.2014 12:12 27,0 C 30,0 C 68 % 1009,8 hPa 0,0 l/m 2 min 0 min 4,2 UV-I 742 W/m 18,8 km/h (3 Bft)
28.07.2014 12:14 27,2 C 30,6 C 68 % 1009,8 hPa 0,0 l/m 2 min 0 min 4,3 UV-I 752 W/m 16,7 km/h (3 Bft)
28.07.2014 12:16 27,2 C 30,0 C 67 % 1009,8 hPa 0,0 l/m 2 min 0 min 4,3 UV-I 744 W/m 20,9 km/h (4 Bft)
28.07.2014 12:18 27,3 C 30,0 C 66 % 1009,8 hPa 0,0 l/m 2 min 0 min 4,2 UV-I 734 W/m 23,0 km/h (4 Bft)
28.07.2014 12:20 27,3 C 30,0 C 66 % 1009,8 hPa 0,0 l/m 2 min 0 min 4,3 UV-I 757 W/m 14,6 km/h (3 Bft)
28.07.2014 12:22 27,2 C 30,0 C 66 % 1009,8 hPa 0,0 l/m 2 min 0 min 4,4 UV-I 769 W/m 18,8 km/h (3 Bft)
28.07.2014 12:24 27,3 C 30,6 C 66 % 1009,8 hPa 0,0 l/m 2 min 0 min 4,4 UV-I 687 W/m 0,0 km/h (0 Bft)
28.07.2014 12:26 27,4 C 30,6 C 66 % 1009,8 hPa 0,0 l/m 2 min 0 min 3,9 UV-I 522 W/m 10,5 km/h (2 Bft)
28.07.2014 12:28 27,6 C 30,0 C 63 % 1009,8 hPa 0,0 l/m 2 min 0 min 3,4 UV-I 486 W/m 23,0 km/h (4 Bft)
28.07.2014 12:30 27,3 C 28,3 C 65 % 1009,8 hPa 0,0 l/m 0 min 0 min 2,4 UV-I 375 W/m 20,9 km/h (4 Bft)
28.07.2014 12:32 26,9 C 27,2 C 64 % 1009,8 hPa 0,0 l/m 0 min 0 min 1,9 UV-I 241 W/m 14,6 km/h (3 Bft)
28.07.2014 12:34 26,7 C 27,2 C 65 % 1009,7 hPa 0,0 l/m 0 min 0 min 1,8 UV-I 244 W/m 12,6 km/h (3 Bft)
28.07.2014 12:36 26,5 C 26,7 C 66 % 1009,7 hPa 0,0 l/m 0 min 0 min 1,8 UV-I 258 W/m 14,6 km/h (3 Bft)
28.07.2014 12:38 26,4 C 26,7 C 67 % 1009,7 hPa 0,0 l/m 0 min 0 min 2,0 UV-I 258 W/m 12,6 km/h (3 Bft)
28.07.2014 12:40 26,4 C 26,7 C 67 % 1009,6 hPa 0,0 l/m 0 min 0 min 2,2 UV-I 313 W/m 16,7 km/h (3 Bft)
28.07.2014 12:42 26,3 C 26,7 C 66 % 1009,5 hPa 0,0 l/m 0 min 0 min 2,4 UV-I 349 W/m 4,2 km/h (1 Bft)
28.07.2014 12:44 26,4 C 26,7 C 67 % 1009,5 hPa 0,0 l/m 0 min 0 min 2,0 UV-I 294 W/m 12,6 km/h (3 Bft)
28.07.2014 12:46 26,4 C 26,7 C 67 % 1009,4 hPa 0,0 l/m 0 min 0 min 1,9 UV-I 281 W/m 14,6 km/h (3 Bft)
28.07.2014 12:48 26,4 C 26,1 C 67 % 1009,4 hPa 0,0 l/m 0 min 0 min 1,8 UV-I 271 W/m 18,8 km/h (3 Bft)
28.07.2014 12:50 26,3 C 26,1 C 66 % 1009,4 hPa 0,0 l/m 0 min 0 min 1,7 UV-I 263 W/m 14,6 km/h (3 Bft)
28.07.2014 12:52 26,3 C 26,1 C 68 % 1009,4 hPa 0,0 l/m 0 min 0 min 1,7 UV-I 257 W/m 12,6 km/h (3 Bft)
28.07.2014 12:54 26,2 C 25,6 C 67 % 1009,4 hPa 0,0 l/m 0 min 0 min 1,6 UV-I 253 W/m 16,7 km/h (3 Bft)
28.07.2014 12:56 26,1 C 25,6 C 66 % 1009,5 hPa 0,0 l/m 0 min 0 min 1,6 UV-I 252 W/m 14,6 km/h (3 Bft)
28.07.2014 12:58 26,2 C 25,6 C 68 % 1009,5 hPa 0,0 l/m 0 min 0 min 1,5 UV-I 248 W/m 10,5 km/h (2 Bft)
28.07.2014 13:00 26,2 C 25,6 C 68 % 1009,6 hPa 0,0 l/m 0 min 0 min 1,4 UV-I 237 W/m 12,6 km/h (3 Bft)
28.07.2014 13:02 26,1 C 25,6 C 69 % 1009,6 hPa 0,0 l/m 0 min 0 min 1,4 UV-I 236 W/m 12,6 km/h (3 Bft)
28.07.2014 13:04 26,2 C 25,6 C 69 % 1009,5 hPa 0,0 l/m 0 min 0 min 1,4 UV-I 249 W/m 6,3 km/h (2 Bft)
28.07.2014 13:06 26,2 C 25,6 C 67 % 1009,4 hPa 0,0 l/m 0 min 0 min 1,4 UV-I 248 W/m 10,5 km/h (2 Bft)
28.07.2014 13:08 26,2 C 25,6 C 67 % 1009,3 hPa 0,0 l/m 0 min 0 min 1,4 UV-I 241 W/m 16,7 km/h (3 Bft)
28.07.2014 13:10 26,2 C 25,6 C 67 % 1009,4 hPa 0,0 l/m 0 min 0 min 1,3 UV-I 228 W/m 14,6 km/h (3 Bft)
28.07.2014 13:12 26,2 C 25,6 C 67 % 1009,4 hPa 0,0 l/m 0 min 0 min 1,2 UV-I 212 W/m 12,6 km/h (3 Bft)
28.07.2014 13:14 26,2 C 25,0 C 69 % 1009,6 hPa 0,0 l/m 0 min 0 min 1,0 UV-I 191 W/m 12,6 km/h (3 Bft)
28.07.2014 13:16 26,1 C 25,0 C 68 % 1009,7 hPa 0,0 l/m 0 min 0 min 0,9 UV-I 167 W/m 12,6 km/h (3 Bft)
28.07.2014 13:18 26,1 C 25,0 C 68 % 1009,8 hPa 0,0 l/m 0 min 0 min 0,7 UV-I 147 W/m 14,6 km/h (3 Bft)
28.07.2014 13:20 25,9 C 24,4 C 67 % 1009,9 hPa 0,0 l/m 0 min 0 min 0,2 UV-I 120 W/m 20,9 km/h (4 Bft)
28.07.2014 13:22 25,8 C 24,4 C 70 % 1010,3 hPa 0,0 l/m 0 min 0 min 0,0 UV-I 88 W/m 43,9 km/h (6 Bft)
28.07.2014 13:24 25,1 C 23,3 C 70 % 1010,3 hPa 0,0 l/m 0 min 0 min 0,0 UV-I 74 W/m 48,1 km/h (6 Bft)
28.07.2014 13:26 24,2 C 22,2 C 72 % 1010,3 hPa 0,0 l/m 0 min 0 min 0,0 UV-I 74 W/m 35,6 km/h (5 Bft)
28.07.2014 13:28 23,4 C 21,7 C 69 % 1010,3 hPa 0,0 l/m 0 min 0 min 0,0 UV-I 80 W/m 46,0 km/h (6 Bft)
28.07.2014 13:30 22,8 C 21,1 C 69 % 1010,2 hPa 0,0 l/m 0 min 0 min 0,3 UV-I 78 W/m 60,7 km/h (7 Bft)
28.07.2014 13:32 22,4 C 21,1 C 68 % 1010,0 hPa 0,0 l/m 0 min 0 min 0,2 UV-I 66 W/m 46,0 km/h (6 Bft)
28.07.2014 13:34 22,1 C 20,6 C 68 % 1010,1 hPa 0,0 l/m 0 min 0 min 0,0 UV-I 55 W/m 43,9 km/h (6 Bft)
28.07.2014 13:36 21,8 C 20,6 C 69 % 1010,0 hPa 0,0 l/m 0 min 0 min 0,0 UV-I 55 W/m 18,8 km/h (3 Bft)
28.07.2014 13:38 21,6 C 20,6 C 72 % 1010,2 hPa 0,0 l/m 0 min 0 min 0,0 UV-I 59 W/m 31,4 km/h (5 Bft)
28.07.2014 13:40 21,5 C 20,6 C 74 % 1010,1 hPa 0,0 l/m 0 min 0 min 0,0 UV-I 70 W/m 27,2 km/h (4 Bft)
28.07.2014 13:42 21,3 C 20,0 C 75 % 1010,1 hPa 0,0 l/m 0 min 2 min 0,0 UV-I 94 W/m 18,8 km/h (3 Bft)
28.07.2014 13:44 21,2 C 20,0 C 77 % 1010,0 hPa 0,0 l/m 0 min 2 min 0,0 UV-I 118 W/m 16,7 km/h (3 Bft)
28.07.2014 13:46 21,2 C 20,0 C 78 % 1009,9 hPa 0,0 l/m 0 min 2 min 0,5 UV-I 150 W/m 14,6 km/h (3 Bft)
28.07.2014 13:48 21,2 C 19,4 C 79 % 1009,9 hPa 0,0 l/m 0 min 2 min 1,0 UV-I 220 W/m 12,6 km/h (3 Bft)
28.07.2014 13:50 21,3 C 18,9 C 79 % 1009,9 hPa 0,0 l/m 0 min 2 min 1,1 UV-I 218 W/m 8,4 km/h (2 Bft)
28.07.2014 13:52 21,4 C 18,9 C 81 % 1009,9 hPa 0,0 l/m 0 min 2 min 1,0 UV-I 208 W/m 12,6 km/h (3 Bft)
28.07.2014 13:54 21,4 C 18,9 C 81 % 1010,1 hPa 0,0 l/m 0 min 2 min 0,9 UV-I 188 W/m 10,5 km/h (2 Bft)
28.07.2014 13:56 21,4 C 18,9 C 82 % 1010,2 hPa 0,0 l/m 0 min 2 min 0,2 UV-I 129 W/m 14,6 km/h (3 Bft)
28.07.2014 13:58 21,2 C 18,3 C 82 % 1010,2 hPa 0,2 l/m 0 min 2 min 0,0 UV-I 103 W/m 14,6 km/h (3 Bft)
28.07.2014 14:00 21,0 C 18,3 C 83 % 1010,3 hPa 0,0 l/m 0 min 2 min 0,0 UV-I 107 W/m 10,5 km/h (2 Bft)
28.07.2014 14:02 20,8 C 17,8 C 84 % 1010,3 hPa 0,0 l/m 0 min 2 min 0,0 UV-I 125 W/m 8,4 km/h (2 Bft)
28.07.2014 14:04 20,7 C 17,8 C 85 % 1010,3 hPa 0,0 l/m 0 min 2 min 0,5 UV-I 161 W/m 12,6 km/h (3 Bft)
28.07.2014 14:06 20,6 C 17,8 C 85 % 1010,3 hPa 0,0 l/m 0 min 2 min 0,9 UV-I 197 W/m 8,4 km/h (2 Bft)
28.07.2014 14:08 20,6 C 18,3 C 86 % 1010,3 hPa 0,0 l/m 0 min 0 min 1,6 UV-I 258 W/m 8,4 km/h (2 Bft)
28.07.2014 14:10 20,6 C 18,3 C 84 % 1010,3 hPa 0,0 l/m 0 min 0 min 1,9 UV-I 283 W/m 0,0 km/h (0 Bft)
28.07.2014 14:12 20,6 C 18,3 C 84 % 1010,2 hPa 0,0 l/m 0 min 0 min 2,3 UV-I 280 W/m 2,1 km/h (1 Bft)
28.07.2014 14:14 20,8 C 18,3 C 84 % 1010,2 hPa 0,0 l/m 0 min 0 min 2,7 UV-I 304 W/m 4,2 km/h (1 Bft)
28.07.2014 14:16 20,8 C 18,3 C 81 % 1010,1 hPa 0,0 l/m 0 min 0 min 2,6 UV-I 382 W/m 2,1 km/h (1 Bft)
28.07.2014 14:18 20,9 C 18,3 C 81 % 1010,2 hPa 0,0 l/m 0 min 0 min 2,5 UV-I 345 W/m 0,0 km/h (0 Bft)
28.07.2014 14:20 21,2 C 18,9 C 84 % 1010,2 hPa 0,0 l/m 0 min 0 min 1,8 UV-I 215 W/m 2,1 km/h (1 Bft)
28.07.2014 14:22 21,2 C 18,9 C 82 % 1010,1 hPa 0,0 l/m 0 min 0 min 1,6 UV-I 167 W/m 0,0 km/h (0 Bft)
28.07.2014 14:24 21,2 C 18,9 C 82 % 1010,0 hPa 0,0 l/m 0 min 0 min 1,3 UV-I 151 W/m 0,0 km/h (0 Bft)
28.07.2014 14:26 21,2 C 18,9 C 82 % 1010,0 hPa 0,0 l/m 0 min 0 min 1,2 UV-I 141 W/m 6,3 km/h (2 Bft)
28.07.2014 14:28 21,2 C 18,9 C 83 % 1010,0 hPa 0,0 l/m 0 min 0 min 1,1 UV-I 143 W/m 4,2 km/h (1 Bft)
28.07.2014 14:30 21,2 C 18,9 C 84 % 1009,9 hPa 0,0 l/m 0 min 0 min 1,1 UV-I 155 W/m 4,2 km/h (1 Bft)
28.07.2014 14:32 21,2 C 18,9 C 83 % 1009,9 hPa 0,0 l/m 0 min 0 min 1,1 UV-I 157 W/m 8,4 km/h (2 Bft)
28.07.2014 14:34 21,2 C 18,9 C 84 % 1009,9 hPa 0,0 l/m 0 min 2 min 1,0 UV-I 146 W/m 8,4 km/h (2 Bft)
28.07.2014 14:36 21,3 C 18,9 C 86 % 1009,9 hPa 0,2 l/m 0 min 2 min 0,8 UV-I 140 W/m 12,6 km/h (3 Bft)
28.07.2014 14:38 21,1 C 18,3 C 86 % 1009,9 hPa 0,0 l/m 0 min 2 min 0,8 UV-I 144 W/m 14,6 km/h (3 Bft)
28.07.2014 14:40 21,0 C 18,3 C 86 % 1009,9 hPa 0,0 l/m 0 min 2 min 0,7 UV-I 144 W/m 12,6 km/h (3 Bft)
28.07.2014 14:42 20,9 C 18,9 C 87 % 1009,9 hPa 0,0 l/m 0 min 2 min 0,7 UV-I 140 W/m 10,5 km/h (2 Bft)
28.07.2014 14:44 20,7 C 18,3 C 87 % 1009,9 hPa 0,0 l/m 0 min 0 min 0,8 UV-I 144 W/m 8,4 km/h (2 Bft)
28.07.2014 14:46 20,6 C 18,3 C 88 % 1009,8 hPa 0,0 l/m 0 min 0 min 1,0 UV-I 163 W/m 0,0 km/h (0 Bft)
28.07.2014 14:48 20,7 C 18,3 C 88 % 1009,8 hPa 0,0 l/m 0 min 2 min 1,3 UV-I 182 W/m 14,6 km/h (3 Bft)
28.07.2014 14:50 20,8 C 18,9 C 89 % 1009,8 hPa 0,0 l/m 0 min 0 min 1,4 UV-I 194 W/m 14,6 km/h (3 Bft)
28.07.2014 14:52 21,0 C 18,9 C 89 % 1009,8 hPa 0,2 l/m 0 min 2 min 1,5 UV-I 204 W/m 16,7 km/h (3 Bft)
28.07.2014 14:54 21,2 C 19,4 C 89 % 1009,8 hPa 0,0 l/m 0 min 2 min 1,8 UV-I 228 W/m 14,6 km/h (3 Bft)
28.07.2014 14:56 21,6 C 20,0 C 89 % 1009,8 hPa 0,0 l/m 2 min 2 min 2,8 UV-I 430 W/m 12,6 km/h (3 Bft)
28.07.2014 14:58 22,0 C 20,0 C 89 % 1009,8 hPa 0,0 l/m 2 min 2 min 3,1 UV-I 656 W/m 16,7 km/h (3 Bft)
28.07.2014 15:00 22,6 C 21,1 C 90 % 1009,9 hPa 0,0 l/m 2 min 2 min 3,3 UV-I 639 W/m 18,8 km/h (3 Bft)
28.07.2014 15:02 22,9 C 21,1 C 90 % 1009,9 hPa 0,0 l/m 2 min 2 min 2,6 UV-I 628 W/m 20,9 km/h (4 Bft)
28.07.2014 15:04 23,1 C 21,1 C 90 % 1009,9 hPa 0,0 l/m 2 min 2 min 2,3 UV-I 565 W/m 20,9 km/h (4 Bft)
28.07.2014 15:06 23,0 C 20,6 C 88 % 1009,9 hPa 0,0 l/m 0 min 0 min 1,9 UV-I 249 W/m 18,8 km/h (3 Bft)
28.07.2014 15:08 23,0 C 20,6 C 89 % 1009,9 hPa 0,0 l/m 0 min 0 min 1,9 UV-I 240 W/m 25,1 km/h (4 Bft)
28.07.2014 15:10 22,8 C 20,6 C 89 % 1009,9 hPa 0,0 l/m 0 min 0 min 1,7 UV-I 211 W/m 23,0 km/h (4 Bft)
28.07.2014 15:12 22,7 C 20,6 C 89 % 1010,0 hPa 0,0 l/m 0 min 0 min 1,5 UV-I 183 W/m 27,2 km/h (4 Bft)
28.07.2014 15:14 22,6 C 20,6 C 90 % 1010,0 hPa 0,0 l/m 0 min 0 min 1,3 UV-I 160 W/m 23,0 km/h (4 Bft)
28.07.2014 15:16 22,6 C 20,6 C 90 % 1009,9 hPa 0,0 l/m 0 min 0 min 1,3 UV-I 149 W/m 23,0 km/h (4 Bft)
28.07.2014 15:18 22,4 C 20,0 C 90 % 1009,9 hPa 0,0 l/m 0 min 0 min 1,2 UV-I 145 W/m 25,1 km/h (4 Bft)
28.07.2014 15:20 22,2 C 20,0 C 89 % 1009,8 hPa 0,0 l/m 0 min 0 min 1,1 UV-I 139 W/m 27,2 km/h (4 Bft)
28.07.2014 15:22 22,2 C 20,0 C 90 % 1009,7 hPa 0,0 l/m 0 min 0 min 1,0 UV-I 130 W/m 18,8 km/h (3 Bft)
28.07.2014 15:24 22,1 C 20,0 C 90 % 1009,7 hPa 0,0 l/m 0 min 0 min 0,9 UV-I 121 W/m 14,6 km/h (3 Bft)
28.07.2014 15:26 22,1 C 20,0 C 90 % 1009,7 hPa 0,0 l/m 0 min 0 min 0,8 UV-I 115 W/m 10,5 km/h (2 Bft)
28.07.2014 15:28 22,0 C 20,0 C 91 % 1009,6 hPa 0,0 l/m 0 min 0 min 0,6 UV-I 110 W/m 18,8 km/h (3 Bft)
28.07.2014 15:30 21,9 C 20,0 C 91 % 1009,7 hPa 0,0 l/m 0 min 0 min 0,2 UV-I 110 W/m 18,8 km/h (3 Bft)
28.07.2014 15:32 21,9 C 20,0 C 91 % 1009,7 hPa 0,0 l/m 0 min 0 min 0,0 UV-I 122 W/m 12,6 km/h (3 Bft)
28.07.2014 15:34 22,0 C 20,0 C 91 % 1009,7 hPa 0,0 l/m 0 min 0 min 0,1 UV-I 141 W/m 14,6 km/h (3 Bft)
28.07.2014 15:36 22,1 C 20,0 C 91 % 1009,7 hPa 0,0 l/m 0 min 2 min 0,5 UV-I 164 W/m 18,8 km/h (3 Bft)
28.07.2014 15:38 22,1 C 20,0 C 91 % 1009,8 hPa 0,0 l/m 0 min 2 min 0,7 UV-I 190 W/m 12,6 km/h (3 Bft)
28.07.2014 15:40 22,1 C 20,0 C 91 % 1009,8 hPa 0,0 l/m 0 min 2 min 1,1 UV-I 259 W/m 20,9 km/h (4 Bft)
28.07.2014 15:42 22,2 C 20,6 C 92 % 1009,8 hPa 0,0 l/m 0 min 2 min 1,3 UV-I 282 W/m 18,8 km/h (3 Bft)
28.07.2014 15:44 22,2 C 20,6 C 92 % 1009,7 hPa 0,0 l/m 0 min 2 min 1,7 UV-I 340 W/m 18,8 km/h (3 Bft)
28.07.2014 15:46 22,4 C 21,1 C 93 % 1009,6 hPa 0,0 l/m 2 min 2 min 2,4 UV-I 381 W/m 16,7 km/h (3 Bft)
28.07.2014 15:48 22,5 C 21,1 C 93 % 1009,7 hPa 0,0 l/m 2 min 2 min 2,3 UV-I 459 W/m 16,7 km/h (3 Bft)
28.07.2014 15:50 22,6 C 21,7 C 93 % 1009,5 hPa 0,0 l/m 0 min 2 min 2,5 UV-I 351 W/m 14,6 km/h (3 Bft)
28.07.2014 15:52 22,7 C 21,1 C 93 % 1009,5 hPa 0,0 l/m 0 min 0 min 2,3 UV-I 340 W/m 18,8 km/h (3 Bft)
28.07.2014 15:54 22,7 C 21,1 C 92 % 1009,4 hPa 0,0 l/m 0 min 0 min 2,2 UV-I 268 W/m 18,8 km/h (3 Bft)
28.07.2014 15:56 22,7 C 21,1 C 92 % 1009,4 hPa 0,0 l/m 0 min 0 min 2,1 UV-I 298 W/m 18,8 km/h (3 Bft)
28.07.2014 15:58 22,9 C 21,7 C 92 % 1009,4 hPa 0,0 l/m 2 min 0 min 3,0 UV-I 619 W/m 14,6 km/h (3 Bft)
28.07.2014 16:00 23,2 C 21,7 C 92 % 1009,5 hPa 0,0 l/m 2 min 0 min 3,0 UV-I 598 W/m 14,6 km/h (3 Bft)
28.07.2014 16:02 23,6 C 22,2 C 92 % 1009,4 hPa 0,0 l/m 2 min 0 min 3,0 UV-I 604 W/m 18,8 km/h (3 Bft)
28.07.2014 16:04 23,8 C 21,7 C 90 % 1009,4 hPa 0,0 l/m 2 min 0 min 2,9 UV-I 605 W/m 18,8 km/h (3 Bft)
28.07.2014 16:06 23,8 C 21,7 C 88 % 1009,5 hPa 0,0 l/m 2 min 0 min 2,8 UV-I 582 W/m 16,7 km/h (3 Bft)
28.07.2014 16:08 23,9 C 21,7 C 88 % 1009,5 hPa 0,0 l/m 2 min 0 min 2,8 UV-I 583 W/m 14,6 km/h (3 Bft)
28.07.2014 16:10 24,1 C 21,7 C 88 % 1009,5 hPa 0,0 l/m 2 min 0 min 2,2 UV-I 451 W/m 14,6 km/h (3 Bft)
28.07.2014 16:12 24,2 C 21,7 C 88 % 1009,4 hPa 0,0 l/m 0 min 0 min 1,8 UV-I 237 W/m 12,6 km/h (3 Bft)
28.07.2014 16:14 24,1 C 21,7 C 86 % 1009,4 hPa 0,0 l/m 0 min 0 min 2,2 UV-I 267 W/m 12,6 km/h (3 Bft)
28.07.2014 16:16 24,2 C 21,7 C 86 % 1009,4 hPa 0,0 l/m 2 min 0 min 2,8 UV-I 512 W/m 18,8 km/h (3 Bft)
28.07.2014 16:18 24,2 C 22,2 C 84 % 1009,4 hPa 0,0 l/m 2 min 0 min 2,7 UV-I 584 W/m 18,8 km/h (3 Bft)
28.07.2014 16:20 24,3 C 22,8 C 83 % 1009,5 hPa 0,0 l/m 2 min 0 min 2,7 UV-I 592 W/m 20,9 km/h (4 Bft)
28.07.2014 16:22 24,4 C 22,8 C 83 % 1009,5 hPa 0,0 l/m 2 min 0 min 2,6 UV-I 572 W/m 16,7 km/h (3 Bft)
28.07.2014 16:24 24,5 C 23,3 C 83 % 1009,5 hPa 0,0 l/m 2 min 0 min 2,6 UV-I 562 W/m 14,6 km/h (3 Bft)
28.07.2014 16:26 24,7 C 23,9 C 84 % 1009,6 hPa 0,0 l/m 2 min 0 min 2,5 UV-I 551 W/m 16,7 km/h (3 Bft)
28.07.2014 16:28 24,9 C 23,9 C 83 % 1009,6 hPa 0,0 l/m 2 min 0 min 2,6 UV-I 572 W/m 14,6 km/h (3 Bft)
28.07.2014 16:30 24,9 C 23,3 C 81 % 1009,7 hPa 0,0 l/m 2 min 0 min 2,3 UV-I 542 W/m 12,6 km/h (3 Bft)
28.07.2014 16:32 25,1 C 23,3 C 80 % 1009,8 hPa 0,0 l/m 2 min 0 min 2,3 UV-I 523 W/m 16,7 km/h (3 Bft)
28.07.2014 16:34 25,1 C 23,9 C 80 % 1009,9 hPa 0,0 l/m 2 min 0 min 2,4 UV-I 597 W/m 12,6 km/h (3 Bft)
28.07.2014 16:36 25,2 C 23,3 C 80 % 1009,9 hPa 0,0 l/m 2 min 0 min 2,1 UV-I 488 W/m 16,7 km/h (3 Bft)
28.07.2014 16:38 25,2 C 23,3 C 79 % 1009,8 hPa 0,0 l/m 2 min 0 min 2,0 UV-I 467 W/m 25,1 km/h (4 Bft)
28.07.2014 16:40 25,1 C 22,8 C 79 % 1009,8 hPa 0,0 l/m 2 min 0 min 2,1 UV-I 485 W/m 23,0 km/h (4 Bft)
28.07.2014 16:42 25,2 C 23,3 C 79 % 1009,8 hPa 0,0 l/m 2 min 0 min 2,2 UV-I 600 W/m 27,2 km/h (4 Bft)
28.07.2014 16:44 25,1 C 23,3 C 77 % 1009,8 hPa 0,0 l/m 2 min 0 min 2,2 UV-I 581 W/m 20,9 km/h (4 Bft)
28.07.2014 16:46 25,2 C 23,9 C 79 % 1009,7 hPa 0,0 l/m 2 min 0 min 2,0 UV-I 573 W/m 18,8 km/h (3 Bft)
28.07.2014 16:48 25,3 C 24,4 C 78 % 1009,8 hPa 0,0 l/m 2 min 0 min 1,7 UV-I 532 W/m 12,6 km/h (3 Bft)
28.07.2014 16:50 25,3 C 24,4 C 80 % 1009,9 hPa 0,0 l/m 2 min 0 min 1,5 UV-I 375 W/m 14,6 km/h (3 Bft)
28.07.2014 16:52 25,2 C 24,4 C 80 % 1009,9 hPa 0,0 l/m 2 min 0 min 1,3 UV-I 333 W/m 10,5 km/h (2 Bft)
28.07.2014 16:54 25,2 C 24,4 C 81 % 1009,9 hPa 0,0 l/m 0 min 0 min 1,0 UV-I 251 W/m 10,5 km/h (2 Bft)
28.07.2014 16:56 24,9 C 23,9 C 80 % 1009,9 hPa 0,0 l/m 0 min 0 min 0,9 UV-I 214 W/m 12,6 km/h (3 Bft)
28.07.2014 16:58 24,7 C 23,9 C 80 % 1010,0 hPa 0,0 l/m 0 min 0 min 0,9 UV-I 221 W/m 16,7 km/h (3 Bft)
28.07.2014 17:00 24,4 C 23,9 C 80 % 1010,0 hPa 0,0 l/m 0 min 0 min 1,1 UV-I 267 W/m 16,7 km/h (3 Bft)
28.07.2014 17:02 24,5 C 24,4 C 82 % 1010,0 hPa 0,0 l/m 2 min 0 min 1,2 UV-I 320 W/m 16,7 km/h (3 Bft)
28.07.2014 17:04 24,6 C 24,4 C 81 % 1010,0 hPa 0,0 l/m 2 min 0 min 1,3 UV-I 385 W/m 10,5 km/h (2 Bft)
28.07.2014 17:06 24,7 C 24,4 C 81 % 1010,0 hPa 0,0 l/m 2 min 0 min 1,3 UV-I 480 W/m 8,4 km/h (2 Bft)
28.07.2014 17:08 24,8 C 25,0 C 82 % 1010,0 hPa 0,0 l/m 2 min 0 min 1,2 UV-I 408 W/m 14,6 km/h (3 Bft)
28.07.2014 17:10 24,9 C 25,0 C 81 % 1010,0 hPa 0,0 l/m 2 min 0 min 1,2 UV-I 372 W/m 14,6 km/h (3 Bft)
28.07.2014 17:12 25,0 C 25,0 C 80 % 1010,0 hPa 0,0 l/m 2 min 0 min 1,2 UV-I 352 W/m 8,4 km/h (2 Bft)
28.07.2014 17:14 25,1 C 25,0 C 80 % 1010,0 hPa 0,0 l/m 2 min 0 min 1,2 UV-I 345 W/m 10,5 km/h (2 Bft)
28.07.2014 17:16 25,1 C 25,0 C 81 % 1010,1 hPa 0,0 l/m 2 min 0 min 1,1 UV-I 386 W/m 12,6 km/h (3 Bft)
28.07.2014 17:18 25,2 C 25,0 C 80 % 1010,1 hPa 0,0 l/m 2 min 0 min 1,2 UV-I 469 W/m 14,6 km/h (3 Bft)
28.07.2014 17:20 25,1 C 25,0 C 79 % 1010,1 hPa 0,0 l/m 2 min 0 min 0,9 UV-I 320 W/m 14,6 km/h (3 Bft)
28.07.2014 17:22 25,1 C 25,0 C 81 % 1010,0 hPa 0,0 l/m 0 min 0 min 0,8 UV-I 226 W/m 12,6 km/h (3 Bft)
28.07.2014 17:24 25,1 C 24,4 C 81 % 1010,0 hPa 0,0 l/m 0 min 0 min 0,7 UV-I 201 W/m 14,6 km/h (3 Bft)
28.07.2014 17:26 24,8 C 24,4 C 79 % 1010,0 hPa 0,0 l/m 0 min 0 min 0,6 UV-I 201 W/m 14,6 km/h (3 Bft)
28.07.2014 17:28 24,6 C 23,9 C 79 % 1010,0 hPa 0,0 l/m 0 min 0 min 0,6 UV-I 221 W/m 14,6 km/h (3 Bft)
28.07.2014 17:30 24,5 C 23,9 C 79 % 1010,0 hPa 0,0 l/m 0 min 0 min 0,6 UV-I 244 W/m 14,6 km/h (3 Bft)
28.07.2014 17:32 24,5 C 23,9 C 80 % 1009,9 hPa 0,0 l/m 0 min 0 min 0,5 UV-I 205 W/m 8,4 km/h (2 Bft)
28.07.2014 17:34 24,4 C 23,9 C 80 % 1009,9 hPa 0,0 l/m 0 min 0 min 0,3 UV-I 186 W/m 6,3 km/h (2 Bft)
28.07.2014 17:36 24,4 C 23,9 C 80 % 1010,0 hPa 0,0 l/m 0 min 0 min 0,0 UV-I 159 W/m 10,5 km/h (2 Bft)
28.07.2014 17:38 24,3 C 23,3 C 80 % 1009,9 hPa 0,0 l/m 0 min 0 min 0,0 UV-I 150 W/m 14,6 km/h (3 Bft)
28.07.2014 17:40 24,2 C 23,3 C 81 % 1009,9 hPa 0,0 l/m 0 min 0 min 0,0 UV-I 155 W/m 10,5 km/h (2 Bft)
28.07.2014 17:42 24,2 C 23,3 C 81 % 1009,9 hPa 0,0 l/m 0 min 0 min 0,0 UV-I 157 W/m 16,7 km/h (3 Bft)
28.07.2014 17:44 24,1 C 23,3 C 81 % 1009,9 hPa 0,0 l/m 0 min 0 min 0,4 UV-I 156 W/m 18,8 km/h (3 Bft)
28.07.2014 17:46 24,0 C 23,3 C 82 % 1009,8 hPa 0,0 l/m 0 min 0 min 0,0 UV-I 143 W/m 10,5 km/h (2 Bft)
28.07.2014 17:48 24,0 C 23,3 C 82 % 1009,8 hPa 0,0 l/m 0 min 0 min 0,0 UV-I 143 W/m 18,8 km/h (3 Bft)
28.07.2014 17:50 24,1 C 23,3 C 83 % 1009,9 hPa 0,0 l/m 0 min 0 min 0,0 UV-I 164 W/m 8,4 km/h (2 Bft)
28.07.2014 17:52 24,1 C 23,3 C 82 % 1009,8 hPa 0,0 l/m 0 min 0 min 0,0 UV-I 186 W/m 16,7 km/h (3 Bft)
28.07.2014 17:54 24,1 C 23,3 C 81 % 1009,9 hPa 0,0 l/m 0 min 0 min 0,0 UV-I 165 W/m 8,4 km/h (2 Bft)
28.07.2014 17:56 24,1 C 23,3 C 82 % 1010,0 hPa 0,0 l/m 0 min 0 min 0,0 UV-I 138 W/m 14,6 km/h (3 Bft)
28.07.2014 17:58 24,1 C 23,3 C 81 % 1010,0 hPa 0,0 l/m 0 min 0 min 0,0 UV-I 125 W/m 14,6 km/h (3 Bft)
28.07.2014 18:00 24,0 C 23,3 C 81 % 1010,0 hPa 0,0 l/m 0 min 0 min 0,0 UV-I 116 W/m 14,6 km/h (3 Bft)
28.07.2014 18:02 23,9 C 22,8 C 81 % 1010,1 hPa 0,0 l/m 0 min 0 min 0,0 UV-I 104 W/m 12,6 km/h (3 Bft)
28.07.2014 18:05 23,8 C 22,8 C 81 % 1010,1 hPa 0,0 l/m 0 min 0 min 0,0 UV-I 89 W/m 10,5 km/h (2 Bft)
28.07.2014 18:06 23,8 C 22,8 C 81 % 1010,1 hPa 0,0 l/m 0 min 0 min 0,0 UV-I 79 W/m 8,4 km/h (2 Bft)
28.07.2014 18:08 23,8 C 22,8 C 81 % 1010,1 hPa 0,0 l/m 0 min 0 min 0,0 UV-I 69 W/m 10,5 km/h (2 Bft)
28.07.2014 18:10 23,8 C 22,8 C 82 % 1010,1 hPa 0,0 l/m 0 min 0 min 0,0 UV-I 60 W/m 10,5 km/h (2 Bft)
28.07.2014 18:12 23,7 C 22,8 C 82 % 1010,1 hPa 0,0 l/m 0 min 0 min 0,0 UV-I 51 W/m 10,5 km/h (2 Bft)
28.07.2014 18:14 23,6 C 22,2 C 81 % 1010,1 hPa 0,0 l/m 0 min 2 min 0,0 UV-I 44 W/m 10,5 km/h (2 Bft)
28.07.2014 18:16 23,6 C 22,2 C 82 % 1010,1 hPa 0,0 l/m 0 min 2 min 0,0 UV-I 38 W/m 12,6 km/h (3 Bft)
28.07.2014 18:18 23,5 C 22,2 C 82 % 1010,1 hPa 0,0 l/m 0 min 2 min 0,0 UV-I 32 W/m 8,4 km/h (2 Bft)
28.07.2014 18:20 23,4 C 21,7 C 82 % 1010,2 hPa 0,2 l/m 0 min 2 min 0,0 UV-I 27 W/m 6,3 km/h (2 Bft)
28.07.2014 18:22 23,4 C 21,1 C 83 % 1010,2 hPa 0,0 l/m 0 min 2 min 0,0 UV-I 24 W/m 0,0 km/h (0 Bft)
28.07.2014 18:24 23,3 C 20,6 C 85 % 1010,2 hPa 0,0 l/m 0 min 2 min 0,0 UV-I 20 W/m 8,4 km/h (2 Bft)
28.07.2014 18:26 23,2 C 20,0 C 85 % 1010,2 hPa 0,2 l/m 0 min 2 min 0,0 UV-I 16 W/m 0,0 km/h (0 Bft)
28.07.2014 18:28 23,1 C 20,0 C 86 % 1010,2 hPa 0,2 l/m 0 min 2 min 0,0 UV-I 14 W/m 0,0 km/h (0 Bft)
28.07.2014 18:30 22,9 C 20,0 C 87 % 1010,4 hPa 0,2 l/m 0 min 2 min 0,0 UV-I 11 W/m 0,0 km/h (0 Bft)
28.07.2014 18:32 22,8 C 20,0 C 88 % 1010,6 hPa 0,6 l/m 0 min 2 min 0,0 UV-I 8 W/m 6,3 km/h (2 Bft)
28.07.2014 18:34 22,7 C 20,0 C 89 % 1010,7 hPa 0,6 l/m 0 min 2 min 0,0 UV-I 7 W/m 16,7 km/h (3 Bft)
28.07.2014 18:36 22,4 C 19,4 C 90 % 1010,7 hPa 1,0 l/m 0 min 2 min 0,0 UV-I 7 W/m 16,7 km/h (3 Bft)
28.07.2014 18:38 22,1 C 19,4 C 90 % 1010,7 hPa 1,8 l/m 0 min 2 min 0,0 UV-I 7 W/m 16,7 km/h (3 Bft)
28.07.2014 18:40 21,9 C 19,4 C 91 % 1010,7 hPa 2,8 l/m 0 min 2 min 0,0 UV-I 8 W/m 16,7 km/h (3 Bft)
28.07.2014 18:42 21,6 C 18,9 C 91 % 1010,6 hPa 2,8 l/m 0 min 2 min 0,0 UV-I 10 W/m 12,6 km/h (3 Bft)
28.07.2014 18:44 21,3 C 18,9 C 92 % 1010,4 hPa 2,0 l/m 0 min 2 min 0,0 UV-I 11 W/m 12,6 km/h (3 Bft)
28.07.2014 18:46 21,1 C 18,9 C 93 % 1010,3 hPa 1,6 l/m 0 min 2 min 0,0 UV-I 13 W/m 8,4 km/h (2 Bft)
28.07.2014 18:48 20,9 C 18,9 C 93 % 1010,3 hPa 1,0 l/m 0 min 2 min 0,0 UV-I 17 W/m 8,4 km/h (2 Bft)
28.07.2014 18:50 20,7 C 18,9 C 93 % 1010,2 hPa 0,4 l/m 0 min 2 min 0,0 UV-I 19 W/m 12,6 km/h (3 Bft)
28.07.2014 18:52 20,6 C 18,9 C 94 % 1010,2 hPa 0,2 l/m 0 min 2 min 0,0 UV-I 21 W/m 8,4 km/h (2 Bft)
28.07.2014 18:54 20,4 C 18,3 C 94 % 1010,1 hPa 0,2 l/m 0 min 2 min 0,0 UV-I 24 W/m 16,7 km/h (3 Bft)
28.07.2014 18:56 20,2 C 17,8 C 93 % 1010,1 hPa 0,0 l/m 0 min 2 min 0,0 UV-I 25 W/m 16,7 km/h (3 Bft)
28.07.2014 18:58 20,1 C 17,8 C 93 % 1010,1 hPa 0,2 l/m 0 min 2 min 0,0 UV-I 26 W/m 10,5 km/h (2 Bft)
28.07.2014 19:00 20,1 C 17,8 C 93 % 1010,1 hPa 0,0 l/m 0 min 2 min 0,0 UV-I 28 W/m 8,4 km/h (2 Bft)
28.07.2014 19:02 20,2 C 17,8 C 93 % 1010,1 hPa 0,0 l/m 0 min 2 min 0,0 UV-I 31 W/m 6,3 km/h (2 Bft)
28.07.2014 19:04 20,2 C 18,3 C 94 % 1010,1 hPa 0,2 l/m 0 min 2 min 0,0 UV-I 34 W/m 0,0 km/h (0 Bft)
28.07.2014 19:06 20,2 C 18,3 C 94 % 1010,2 hPa 0,0 l/m 0 min 2 min 0,0 UV-I 39 W/m 2,1 km/h (1 Bft)
28.07.2014 19:08 20,3 C 18,3 C 95 % 1010,2 hPa 0,0 l/m 0 min 2 min 0,0 UV-I 43 W/m 14,6 km/h (3 Bft)
28.07.2014 19:10 20,4 C 18,9 C 95 % 1010,3 hPa 0,0 l/m 0 min 2 min 0,0 UV-I 47 W/m 10,5 km/h (2 Bft)
28.07.2014 19:12 20,5 C 18,9 C 96 % 1010,3 hPa 0,0 l/m 0 min 2 min 0,0 UV-I 49 W/m 10,5 km/h (2 Bft)
28.07.2014 19:14 20,6 C 18,9 C 96 % 1010,2 hPa 0,0 l/m 0 min 2 min 0,0 UV-I 49 W/m 8,4 km/h (2 Bft)
28.07.2014 19:16 20,6 C 18,9 C 96 % 1010,2 hPa 0,0 l/m 0 min 2 min 0,0 UV-I 49 W/m 8,4 km/h (2 Bft)
28.07.2014 19:18 20,5 C 18,9 C 96 % 1010,2 hPa 0,0 l/m 0 min 2 min 0,0 UV-I 49 W/m 10,5 km/h (2 Bft)
28.07.2014 19:20 20,4 C 18,9 C 96 % 1010,2 hPa 0,0 l/m 0 min 2 min 0,0 UV-I 49 W/m 8,4 km/h (2 Bft)
28.07.2014 19:22 20,4 C 18,9 C 96 % 1010,2 hPa 0,0 l/m 0 min 2 min 0,0 UV-I 49 W/m 2,1 km/h (1 Bft)
28.07.2014 19:24 20,3 C 18,9 C 96 % 1010,2 hPa 0,0 l/m 0 min 0 min 0,0 UV-I 48 W/m 0,0 km/h (0 Bft)
28.07.2014 19:26 20,3 C 18,9 C 96 % 1010,1 hPa 0,0 l/m 0 min 0 min 0,0 UV-I 47 W/m 0,0 km/h (0 Bft)
28.07.2014 19:28 20,3 C 18,9 C 96 % 1010,2 hPa 0,0 l/m 0 min 0 min 0,0 UV-I 47 W/m 0,0 km/h (0 Bft)
28.07.2014 19:30 20,4 C 18,9 C 96 % 1010,2 hPa 0,0 l/m 0 min 0 min 0,0 UV-I 45 W/m 0,0 km/h (0 Bft)
28.07.2014 19:32 20,3 C 18,9 C 96 % 1010,2 hPa 0,0 l/m 0 min 0 min 0,0 UV-I 43 W/m 0,0 km/h (0 Bft)
28.07.2014 19:34 20,4 C 18,9 C 97 % 1010,2 hPa 0,0 l/m 0 min 0 min 0,0 UV-I 42 W/m 0,0 km/h (0 Bft)
28.07.2014 19:36 20,4 C 18,9 C 97 % 1010,2 hPa 0,0 l/m 0 min 0 min 0,0 UV-I 43 W/m 0,0 km/h (0 Bft)
28.07.2014 19:38 20,4 C 18,9 C 97 % 1010,1 hPa 0,0 l/m 0 min 0 min 0,0 UV-I 45 W/m 0,0 km/h (0 Bft)
28.07.2014 19:40 20,3 C 18,9 C 97 % 1010,1 hPa 0,0 l/m 0 min 0 min 0,0 UV-I 46 W/m 0,0 km/h (0 Bft)
28.07.2014 19:42 20,3 C 18,9 C 97 % 1010,2 hPa 0,0 l/m 0 min 0 min 0,0 UV-I 47 W/m 0,0 km/h (0 Bft)
28.07.2014 19:44 20,3 C 18,9 C 97 % 1010,2 hPa 0,0 l/m 0 min 0 min 0,0 UV-I 49 W/m 0,0 km/h (0 Bft)
28.07.2014 19:46 20,3 C 18,9 C 97 % 1010,2 hPa 0,0 l/m 0 min 0 min 0,0 UV-I 49 W/m 0,0 km/h (0 Bft)
28.07.2014 19:48 20,3 C 18,9 C 97 % 1010,2 hPa 0,0 l/m 0 min 0 min 0,0 UV-I 49 W/m 0,0 km/h (0 Bft)
28.07.2014 19:50 20,3 C 18,9 C 97 % 1010,3 hPa 0,0 l/m 0 min 0 min 0,0 UV-I 49 W/m 0,0 km/h (0 Bft)
28.07.2014 19:52 20,3 C 18,9 C 97 % 1010,3 hPa 0,0 l/m 0 min 0 min 0,0 UV-I 49 W/m 0,0 km/h (0 Bft)
28.07.2014 19:54 20,3 C 18,9 C 97 % 1010,4 hPa 0,0 l/m 0 min 0 min 0,0 UV-I 49 W/m 0,0 km/h (0 Bft)
28.07.2014 19:56 20,3 C 18,9 C 97 % 1010,4 hPa 0,0 l/m 0 min 0 min 0,0 UV-I 49 W/m 0,0 km/h (0 Bft)
28.07.2014 19:58 20,3 C 18,9 C 97 % 1010,4 hPa 0,0 l/m 0 min 0 min 0,0 UV-I 49 W/m 2,1 km/h (1 Bft)
28.07.2014 20:00 20,3 C 18,9 C 97 % 1010,3 hPa 0,0 l/m 0 min 0 min 0,0 UV-I 48 W/m 0,0 km/h (0 Bft)
28.07.2014 20:02 20,3 C 18,9 C 98 % 1010,4 hPa 0,0 l/m 0 min 0 min 0,0 UV-I 47 W/m 2,1 km/h (1 Bft)
28.07.2014 20:04 20,3 C 18,9 C 97 % 1010,3 hPa 0,0 l/m 0 min 0 min 0,0 UV-I 46 W/m 0,0 km/h (0 Bft)
28.07.2014 20:06 20,4 C 18,9 C 98 % 1010,4 hPa 0,0 l/m 0 min 0 min 0,0 UV-I 46 W/m 0,0 km/h (0 Bft)
28.07.2014 20:08 20,4 C 18,9 C 98 % 1010,5 hPa 0,0 l/m 0 min 0 min 0,0 UV-I 44 W/m 0,0 km/h (0 Bft)
28.07.2014 20:10 20,3 C 18,9 C 98 % 1010,5 hPa 0,0 l/m 0 min 0 min 0,0 UV-I 42 W/m 0,0 km/h (0 Bft)
28.07.2014 20:12 20,4 C 18,9 C 98 % 1010,6 hPa 0,0 l/m 0 min 0 min 0,0 UV-I 40 W/m 2,1 km/h (1 Bft)
28.07.2014 20:14 20,4 C 18,9 C 98 % 1010,5 hPa 0,0 l/m 0 min 0 min 0,0 UV-I 39 W/m 0,0 km/h (0 Bft)
28.07.2014 20:16 20,4 C 18,9 C 98 % 1010,5 hPa 0,0 l/m 0 min 0 min 0,0 UV-I 38 W/m 0,0 km/h (0 Bft)
28.07.2014 20:18 20,3 C 18,9 C 98 % 1010,6 hPa 0,0 l/m 0 min 0 min 0,0 UV-I 35 W/m 0,0 km/h (0 Bft)
28.07.2014 20:20 20,3 C 18,9 C 98 % 1010,6 hPa 0,0 l/m 0 min 0 min 0,0 UV-I 35 W/m 0,0 km/h (0 Bft)
28.07.2014 20:22 20,3 C 18,9 C 98 % 1010,6 hPa 0,0 l/m 0 min 0 min 0,0 UV-I 33 W/m 0,0 km/h (0 Bft)
28.07.2014 20:24 20,3 C 18,9 C 98 % 1010,6 hPa 0,0 l/m 0 min 0 min 0,0 UV-I 33 W/m 0,0 km/h (0 Bft)
28.07.2014 20:26 20,3 C 18,9 C 98 % 1010,7 hPa 0,0 l/m 0 min 0 min 0,0 UV-I 35 W/m 0,0 km/h (0 Bft)
28.07.2014 20:28 20,3 C 18,9 C 98 % 1010,8 hPa 0,0 l/m 0 min 0 min 0,0 UV-I 36 W/m 0,0 km/h (0 Bft)
28.07.2014 20:30 20,3 C 18,9 C 98 % 1010,8 hPa 0,0 l/m 0 min 0 min 0,0 UV-I 35 W/m 0,0 km/h (0 Bft)
28.07.2014 20:32 20,3 C 18,9 C 98 % 1010,8 hPa 0,0 l/m 0 min 0 min 0,0 UV-I 34 W/m 0,0 km/h (0 Bft)
28.07.2014 20:34 20,4 C 18,9 C 98 % 1010,8 hPa 0,0 l/m 0 min 0 min 0,0 UV-I 33 W/m 0,0 km/h (0 Bft)
28.07.2014 20:36 20,4 C 18,9 C 98 % 1010,9 hPa 0,0 l/m 0 min 0 min 0,0 UV-I 32 W/m 0,0 km/h (0 Bft)
28.07.2014 20:38 20,4 C 18,9 C 98 % 1010,8 hPa 0,0 l/m 0 min 0 min 0,0 UV-I 30 W/m 0,0 km/h (0 Bft)
28.07.2014 20:40 20,4 C 18,9 C 98 % 1010,9 hPa 0,0 l/m 0 min 0 min 0,0 UV-I 30 W/m 0,0 km/h (0 Bft)
28.07.2014 20:42 20,4 C 18,9 C 98 % 1010,8 hPa 0,0 l/m 0 min 0 min 0,0 UV-I 31 W/m 0,0 km/h (0 Bft)
28.07.2014 20:44 20,4 C 18,9 C 98 % 1010,8 hPa 0,0 l/m 0 min 0 min 0,0 UV-I 32 W/m 0,0 km/h (0 Bft)
28.07.2014 20:46 20,4 C 18,9 C 98 % 1010,8 hPa 0,0 l/m 0 min 0 min 0,0 UV-I 29 W/m 0,0 km/h (0 Bft)
28.07.2014 20:48 20,4 C 18,9 C 98 % 1010,9 hPa 0,0 l/m 0 min 0 min 0,0 UV-I 28 W/m 0,0 km/h (0 Bft)
28.07.2014 20:50 20,4 C 18,9 C 98 % 1010,8 hPa 0,0 l/m 0 min 0 min 0,0 UV-I 25 W/m 6,3 km/h (2 Bft)
28.07.2014 20:52 20,4 C 18,9 C 98 % 1010,9 hPa 0,0 l/m 0 min 0 min 0,0 UV-I 21 W/m 6,3 km/h (2 Bft)
28.07.2014 20:54 20,4 C 18,9 C 98 % 1010,8 hPa 0,0 l/m 0 min 0 min 0,0 UV-I 17 W/m 0,0 km/h (0 Bft)
28.07.2014 20:56 20,4 C 18,9 C 98 % 1010,9 hPa 0,0 l/m 0 min 0 min 0,0 UV-I 15 W/m 0,0 km/h (0 Bft)
28.07.2014 20:58 20,4 C 18,9 C 98 % 1010,8 hPa 0,0 l/m 0 min 0 min 0,0 UV-I 12 W/m 0,0 km/h (0 Bft)
28.07.2014 21:00 20,4 C 18,9 C 98 % 1010,8 hPa 0,0 l/m 0 min 0 min 0,0 UV-I 12 W/m 0,0 km/h (0 Bft)
28.07.2014 21:02 20,3 C 18,9 C 98 % 1010,8 hPa 0,0 l/m 0 min 0 min 0,0 UV-I 11 W/m 6,3 km/h (2 Bft)
28.07.2014 21:04 20,3 C 18,9 C 98 % 1010,8 hPa 0,0 l/m 0 min 0 min 0,0 UV-I 9 W/m 6,3 km/h (2 Bft)
28.07.2014 21:06 20,3 C 18,9 C 98 % 1010,8 hPa 0,0 l/m 0 min 0 min 0,0 UV-I 9 W/m 6,3 km/h (2 Bft)
28.07.2014 21:08 20,3 C 18,9 C 98 % 1010,8 hPa 0,0 l/m 0 min 0 min 0,0 UV-I 8 W/m 6,3 km/h (2 Bft)
28.07.2014 21:10 20,3 C 18,9 C 98 % 1010,8 hPa 0,0 l/m 0 min 0 min 0,0 UV-I 7 W/m 2,1 km/h (1 Bft)
28.07.2014 21:12 20,3 C 18,9 C 98 % 1010,7 hPa 0,0 l/m 0 min 0 min 0,0 UV-I 7 W/m 8,4 km/h (2 Bft)
28.07.2014 21:14 20,3 C 18,9 C 98 % 1010,8 hPa 0,0 l/m 0 min 0 min 0,0 UV-I 7 W/m 6,3 km/h (2 Bft)
28.07.2014 21:16 20,3 C 18,9 C 98 % 1010,7 hPa 0,0 l/m 0 min 0 min 0,0 UV-I 7 W/m 6,3 km/h (2 Bft)
28.07.2014 21:18 20,2 C 18,9 C 98 % 1010,7 hPa 0,0 l/m 0 min 0 min 0,0 UV-I 7 W/m 8,4 km/h (2 Bft)
28.07.2014 21:20 20,2 C 18,9 C 98 % 1010,6 hPa 0,0 l/m 0 min 0 min 0,0 UV-I 6 W/m 0,0 km/h (0 Bft)
28.07.2014 21:22 20,2 C 18,3 C 98 % 1010,6 hPa 0,0 l/m 0 min 0 min 0,0 UV-I 5 W/m 6,3 km/h (2 Bft)
28.07.2014 21:24 20,1 C 18,3 C 98 % 1010,6 hPa 0,0 l/m 0 min 0 min 0,0 UV-I 5 W/m 0,0 km/h (0 Bft)
28.07.2014 21:26 20,1 C 18,3 C 98 % 1010,6 hPa 0,0 l/m 0 min 0 min 0,0 UV-I 5 W/m 2,1 km/h (1 Bft)
28.07.2014 21:28 20,1 C 18,3 C 98 % 1010,7 hPa 0,0 l/m 0 min 0 min 0,0 UV-I 3 W/m 0,0 km/h (0 Bft)
28.07.2014 21:30 20,1 C 18,3 C 98 % 1010,8 hPa 0,0 l/m 0 min 0 min 0,0 UV-I 0 W/m 0,0 km/h (0 Bft)
28.07.2014 21:32 20,1 C 18,3 C 98 % 1010,8 hPa 0,0 l/m 0 min 0 min 0,0 UV-I 0 W/m 0,0 km/h (0 Bft)
28.07.2014 21:34 20,1 C 18,3 C 98 % 1010,8 hPa 0,0 l/m 0 min 0 min 0,0 UV-I 0 W/m 0,0 km/h (0 Bft)
28.07.2014 21:36 20,0 C 18,3 C 98 % 1010,9 hPa 0,0 l/m 0 min 0 min 0,0 UV-I 0 W/m 0,0 km/h (0 Bft)
28.07.2014 21:38 19,9 C 18,3 C 98 % 1011,0 hPa 0,0 l/m 0 min 0 min 0,0 UV-I 0 W/m 0,0 km/h (0 Bft)
28.07.2014 21:40 19,9 C 18,3 C 98 % 1011,1 hPa 0,0 l/m 0 min 0 min 0,0 UV-I 0 W/m 0,0 km/h (0 Bft)
28.07.2014 21:42 19,9 C 18,3 C 98 % 1011,2 hPa 0,0 l/m 0 min 0 min 0,0 UV-I 0 W/m 0,0 km/h (0 Bft)
28.07.2014 21:44 19,9 C 18,3 C 98 % 1011,2 hPa 0,0 l/m 0 min 0 min 0,0 UV-I 0 W/m 0,0 km/h (0 Bft)
28.07.2014 21:46 19,9 C 17,8 C 98 % 1011,2 hPa 0,0 l/m 0 min 0 min 0,0 UV-I 0 W/m 0,0 km/h (0 Bft)
28.07.2014 21:48 19,8 C 17,8 C 98 % 1011,2 hPa 0,0 l/m 0 min 0 min 0,0 UV-I 0 W/m 0,0 km/h (0 Bft)
28.07.2014 21:50 19,8 C 17,8 C 98 % 1011,3 hPa 0,0 l/m 0 min 0 min 0,0 UV-I 0 W/m 0,0 km/h (0 Bft)
28.07.2014 21:52 19,8 C 17,8 C 99 % 1011,3 hPa 0,0 l/m 0 min 0 min 0,0 UV-I 0 W/m 0,0 km/h (0 Bft)
28.07.2014 21:54 19,8 C 17,8 C 99 % 1011,4 hPa 0,0 l/m 0 min 0 min 0,0 UV-I 0 W/m 0,0 km/h (0 Bft)
28.07.2014 21:56 19,8 C 17,8 C 99 % 1011,4 hPa 0,0 l/m 0 min 0 min 0,0 UV-I 0 W/m 0,0 km/h (0 Bft)
28.07.2014 21:58 19,7 C 17,8 C 99 % 1011,5 hPa 0,0 l/m 0 min 0 min 0,0 UV-I 0 W/m 0,0 km/h (0 Bft)
28.07.2014 22:00 19,7 C 17,8 C 99 % 1011,4 hPa 0,0 l/m 0 min 0 min 0,0 UV-I 0 W/m 0,0 km/h (0 Bft)
28.07.2014 22:02 19,7 C 17,8 C 99 % 1011,4 hPa 0,0 l/m 0 min 0 min 0,0 UV-I 0 W/m 0,0 km/h (0 Bft)
28.07.2014 22:04 19,7 C 17,8 C 99 % 1011,4 hPa 0,0 l/m 0 min 0 min 0,0 UV-I 0 W/m 0,0 km/h (0 Bft)
28.07.2014 22:06 19,7 C 17,8 C 99 % 1011,4 hPa 0,0 l/m 0 min 0 min 0,0 UV-I 0 W/m 0,0 km/h (0 Bft)
28.07.2014 22:08 19,7 C 18,3 C 99 % 1011,4 hPa 0,0 l/m 0 min 0 min 0,0 UV-I 0 W/m 0,0 km/h (0 Bft)
28.07.2014 22:10 19,7 C 18,3 C 99 % 1011,4 hPa 0,0 l/m 0 min 0 min 0,0 UV-I 0 W/m 0,0 km/h (0 Bft)
28.07.2014 22:12 19,6 C 17,8 C 99 % 1011,3 hPa 0,0 l/m 0 min 0 min 0,0 UV-I 0 W/m 0,0 km/h (0 Bft)
28.07.2014 22:14 19,6 C 17,8 C 99 % 1011,3 hPa 0,0 l/m 0 min 0 min 0,0 UV-I 0 W/m 0,0 km/h (0 Bft)
28.07.2014 22:16 19,5 C 17,8 C 99 % 1011,3 hPa 0,0 l/m 0 min 0 min 0,0 UV-I 0 W/m 0,0 km/h (0 Bft)
28.07.2014 22:18 19,5 C 17,8 C 99 % 1011,3 hPa 0,0 l/m 0 min 0 min 0,0 UV-I 0 W/m 0,0 km/h (0 Bft)
28.07.2014 22:20 19,5 C 17,8 C 99 % 1011,2 hPa 0,0 l/m 0 min 0 min 0,0 UV-I 0 W/m 0,0 km/h (0 Bft)
28.07.2014 22:22 19,4 C 17,8 C 99 % 1011,2 hPa 0,0 l/m 0 min 0 min 0,0 UV-I 0 W/m 2,1 km/h (1 Bft)
28.07.2014 22:24 19,4 C 17,8 C 99 % 1011,2 hPa 0,0 l/m 0 min 0 min 0,0 UV-I 0 W/m 6,3 km/h (2 Bft)
28.07.2014 22:26 19,4 C 17,8 C 99 % 1011,2 hPa 0,0 l/m 0 min 0 min 0,0 UV-I 0 W/m 4,2 km/h (1 Bft)
28.07.2014 22:28 19,3 C 17,8 C 99 % 1011,2 hPa 0,0 l/m 0 min 0 min 0,0 UV-I 0 W/m 0,0 km/h (0 Bft)
28.07.2014 22:30 19,3 C 17,8 C 99 % 1011,2 hPa 0,0 l/m 0 min 0 min 0,0 UV-I 0 W/m 0,0 km/h (0 Bft)
28.07.2014 22:32 19,3 C 17,8 C 99 % 1011,2 hPa 0,0 l/m 0 min 0 min 0,0 UV-I 0 W/m 0,0 km/h (0 Bft)
28.07.2014 22:34 19,2 C 17,8 C 99 % 1011,1 hPa 0,0 l/m 0 min 0 min 0,0 UV-I 0 W/m 0,0 km/h (0 Bft)
28.07.2014 22:36 19,2 C 17,8 C 99 % 1011,1 hPa 0,0 l/m 0 min 0 min 0,0 UV-I 0 W/m 0,0 km/h (0 Bft)
28.07.2014 22:38 19,2 C 17,8 C 99 % 1011,1 hPa 0,0 l/m 0 min 0 min 0,0 UV-I 0 W/m 0,0 km/h (0 Bft)
28.07.2014 22:40 19,2 C 17,8 C 99 % 1011,0 hPa 0,0 l/m 0 min 0 min 0,0 UV-I 0 W/m 0,0 km/h (0 Bft)
28.07.2014 22:42 19,2 C 17,8 C 99 % 1011,1 hPa 0,0 l/m 0 min 0 min 0,0 UV-I 0 W/m 0,0 km/h (0 Bft)
28.07.2014 22:44 19,1 C 17,8 C 99 % 1011,0 hPa 0,0 l/m 0 min 0 min 0,0 UV-I 0 W/m 0,0 km/h (0 Bft)
28.07.2014 22:46 19,1 C 17,8 C 99 % 1011,0 hPa 0,0 l/m 0 min 0 min 0,0 UV-I 0 W/m 0,0 km/h (0 Bft)
28.07.2014 22:48 19,1 C 17,2 C 99 % 1011,0 hPa 0,0 l/m 0 min 0 min 0,0 UV-I 0 W/m 0,0 km/h (0 Bft)
28.07.2014 22:50 19,1 C 17,2 C 99 % 1011,0 hPa 0,0 l/m 0 min 0 min 0,0 UV-I 0 W/m 0,0 km/h (0 Bft)
28.07.2014 22:52 19,0 C 17,2 C 99 % 1011,0 hPa 0,0 l/m 0 min 0 min 0,0 UV-I 0 W/m 0,0 km/h (0 Bft)
28.07.2014 22:54 19,0 C 17,2 C 99 % 1011,0 hPa 0,0 l/m 0 min 0 min 0,0 UV-I 0 W/m 0,0 km/h (0 Bft)
28.07.2014 22:56 19,0 C 17,2 C 99 % 1011,1 hPa 0,0 l/m 0 min 0 min 0,0 UV-I 0 W/m 0,0 km/h (0 Bft)
28.07.2014 22:58 19,0 C 17,8 C 99 % 1011,0 hPa 0,0 l/m 0 min 0 min 0,0 UV-I 0 W/m 6,3 km/h (2 Bft)
28.07.2014 23:00 19,0 C 17,8 C 99 % 1011,0 hPa 0,2 l/m 0 min 0 min 0,0 UV-I 0 W/m 6,3 km/h (2 Bft)
28.07.2014 23:02 19,0 C 17,2 C 99 % 1011,0 hPa 0,0 l/m 0 min 0 min 0,0 UV-I 0 W/m 4,2 km/h (1 Bft)
28.07.2014 23:04 18,9 C 17,2 C 99 % 1011,0 hPa 0,0 l/m 0 min 0 min 0,0 UV-I 0 W/m 0,0 km/h (0 Bft)
28.07.2014 23:06 18,9 C 17,2 C 99 % 1011,0 hPa 0,0 l/m 0 min 0 min 0,0 UV-I 0 W/m 0,0 km/h (0 Bft)
28.07.2014 23:08 18,9 C 17,2 C 99 % 1011,0 hPa 0,0 l/m 0 min 0 min 0,0 UV-I 0 W/m 0,0 km/h (0 Bft)
28.07.2014 23:10 18,8 C 17,2 C 99 % 1011,0 hPa 0,0 l/m 0 min 0 min 0,0 UV-I 0 W/m 0,0 km/h (0 Bft)
28.07.2014 23:12 18,8 C 17,2 C 99 % 1010,9 hPa 0,0 l/m 0 min 0 min 0,0 UV-I 0 W/m 0,0 km/h (0 Bft)
28.07.2014 23:14 18,8 C 17,2 C 99 % 1010,9 hPa 0,0 l/m 0 min 0 min 0,0 UV-I 0 W/m 0,0 km/h (0 Bft)
28.07.2014 23:16 18,7 C 17,2 C 99 % 1011,0 hPa 0,0 l/m 0 min 0 min 0,0 UV-I 0 W/m 0,0 km/h (0 Bft)
28.07.2014 23:18 18,7 C 17,2 C 99 % 1010,9 hPa 0,0 l/m 0 min 0 min 0,0 UV-I 0 W/m 0,0 km/h (0 Bft)
28.07.2014 23:20 18,7 C 17,2 C 99 % 1010,9 hPa 0,0 l/m 0 min 0 min 0,0 UV-I 0 W/m 0,0 km/h (0 Bft)
28.07.2014 23:22 18,6 C 17,2 C 99 % 1010,9 hPa 0,0 l/m 0 min 0 min 0,0 UV-I 0 W/m 0,0 km/h (0 Bft)
28.07.2014 23:24 18,6 C 17,2 C 99 % 1010,9 hPa 0,0 l/m 0 min 0 min 0,0 UV-I 0 W/m 0,0 km/h (0 Bft)
28.07.2014 23:26 18,5 C 17,2 C 99 % 1010,9 hPa 0,0 l/m 0 min 0 min 0,0 UV-I 0 W/m 0,0 km/h (0 Bft)
28.07.2014 23:28 18,5 C 17,2 C 99 % 1010,9 hPa 0,0 l/m 0 min 0 min 0,0 UV-I 0 W/m 0,0 km/h (0 Bft)
28.07.2014 23:30 18,4 C 17,2 C 99 % 1010,9 hPa 0,0 l/m 0 min 0 min 0,0 UV-I 0 W/m 0,0 km/h (0 Bft)
28.07.2014 23:32 18,4 C 17,2 C 99 % 1010,9 hPa 0,0 l/m 0 min 0 min 0,0 UV-I 0 W/m 2,1 km/h (1 Bft)
28.07.2014 23:34 18,4 C 17,2 C 99 % 1010,9 hPa 0,0 l/m 0 min 0 min 0,0 UV-I 0 W/m 2,1 km/h (1 Bft)
28.07.2014 23:36 18,4 C 17,2 C 99 % 1010,9 hPa 0,0 l/m 0 min 0 min 0,0 UV-I 0 W/m 0,0 km/h (0 Bft)
28.07.2014 23:38 18,4 C 17,2 C 99 % 1010,9 hPa 0,0 l/m 0 min 0 min 0,0 UV-I 0 W/m 0,0 km/h (0 Bft)
28.07.2014 23:40 18,4 C 17,2 C 99 % 1010,9 hPa 0,0 l/m 0 min 0 min 0,0 UV-I 0 W/m 2,1 km/h (1 Bft)
28.07.2014 23:42 18,4 C 17,2 C 99 % 1010,9 hPa 0,0 l/m 0 min 0 min 0,0 UV-I 0 W/m 0,0 km/h (0 Bft)
28.07.2014 23:44 18,4 C 17,2 C 99 % 1010,9 hPa 0,0 l/m 0 min 0 min 0,0 UV-I 0 W/m 2,1 km/h (1 Bft)
28.07.2014 23:46 18,4 C 17,2 C 99 % 1010,9 hPa 0,0 l/m 0 min 0 min 0,0 UV-I 0 W/m 0,0 km/h (0 Bft)
28.07.2014 23:48 18,4 C 17,2 C 99 % 1010,9 hPa 0,0 l/m 0 min 0 min 0,0 UV-I 0 W/m 0,0 km/h (0 Bft)
28.07.2014 23:50 18,4 C 17,2 C 99 % 1010,9 hPa 0,0 l/m 0 min 0 min 0,0 UV-I 0 W/m 0,0 km/h (0 Bft)
28.07.2014 23:52 18,4 C 17,2 C 99 % 1010,8 hPa 0,0 l/m 0 min 0 min 0,0 UV-I 0 W/m 0,0 km/h (0 Bft)
28.07.2014 23:54 18,4 C 17,2 C 99 % 1010,8 hPa 0,0 l/m 0 min 0 min 0,0 UV-I 0 W/m 0,0 km/h (0 Bft)
28.07.2014 23:56 18,4 C 17,2 C 99 % 1010,8 hPa 0,0 l/m 0 min 0 min 0,0 UV-I 0 W/m 0,0 km/h (0 Bft)
28.07.2014 23:58 18,4 C 17,2 C 99 % 1010,8 hPa 0,0 l/m 0 min 0 min 0,0 UV-I 0 W/m 0,0 km/h (0 Bft)
_ Min-Zeit 23:30 00:00 12:28 13:08 - - - - - 00:00
Minimum _ 18,4 C 17,2 C 63 % 1009,3 hPa - - - - - 0,0 km/h (0 Bft)
_ Max-Zeit 12:28 12:14 21:52 00:08 18:40 06:06 07:36 12:22 12:22 13:30
Maximum _ 27,6 C 30,6 C 99 % 1014,6 hPa 2,8 l/m 2 min 2 min 4,4 UV-I 769 W/m 60,7 km/h
W-NW (7 Bft)
Durchschnitt _ 21,2 C 20,2 C 88 % 1011,3 hPa #17,0 l/m #5:02 h #2:36 h 1,8 UV-I 227 W/m 6,9 km/h (2 Bft)
© 2014 W. Hausmann